ETD172H KLAX-OMAA
Flight info
| Callsign | ETD172H |
|---|---|
| Flight time | N/A |
| Altitude | 32000 |
| Route | GMN7 EHF J5 FMG/N0487F310 J7 REO/N0486F320 J537 MLP/N0482F330 J540 YQL Q896 MEETO Q959 YVC J540 YEK/N0483F350 J540 YZS DCT 65N079W 67N067W/M082F350 69N053W 69N037W 67N023W/M081F370 65N011W 63N005W DCT ERSER/N0470F370 DCT EPOTU DCT PEVEB DCT LAGUM L621 AAL M725 OLPIB M602 BINKA DCT VABAT L619 ADVAB L623 LENOV DCT JIBOU/N0457F390 DCT SOBSA DCT VEVIN DCT IVGOT Q7 ARTAT UL601 BAG UW75 BAKIR UL601 TUNLA L601 KTN R785 RASLI P559 TRF V45 ITIXI M691 SILBA H979 DASVA N318 VELAM P708 VUTAN N318 KAPUM N685 GIDOB |
| Aircraft | A346/H-SDE2E3FGHIJ3J4J5M1RWXY/LB1D1 |
Departure
| Time | N/A |
|---|---|
| Airport | Los Angeles International Airport (KLAX) |
Arrival
| Time | 2026-05-07 04:42 |
|---|---|
| Airport | Zayed International Airport (OMAA) |
| Time | Latitude | Longitude | Altitude | Speed | Heading |
|---|---|---|---|---|---|
| 2026-05-06 15:17 | 54.94138 | -104.90375 | 35176 ft | 434 kts | 39° |
| 2026-05-06 15:17 | 54.98303 | -104.82725 | 35202 ft | 438 kts | 40° |
| 2026-05-06 15:18 | 55.02501 | -104.74968 | 35192 ft | 440 kts | 40° |
| 2026-05-06 15:18 | 55.06687 | -104.67195 | 35183 ft | 440 kts | 40° |
| 2026-05-06 15:19 | 55.10882 | -104.59387 | 35183 ft | 440 kts | 40° |
| 2026-05-06 15:19 | 55.15071 | -104.51567 | 35187 ft | 440 kts | 40° |
| 2026-05-06 15:20 | 55.19266 | -104.43712 | 35217 ft | 440 kts | 40° |
| 2026-05-06 15:20 | 55.23470 | -104.35837 | 35194 ft | 444 kts | 41° |
| 2026-05-06 15:21 | 55.27682 | -104.27890 | 35184 ft | 445 kts | 41° |
| 2026-05-06 15:21 | 55.31892 | -104.19920 | 35202 ft | 445 kts | 41° |
| 2026-05-06 15:22 | 55.36101 | -104.11932 | 35185 ft | 445 kts | 41° |
| 2026-05-06 15:22 | 55.40299 | -104.03939 | 35185 ft | 445 kts | 41° |
| 2026-05-06 15:23 | 55.44505 | -103.95917 | 35214 ft | 447 kts | 42° |
| 2026-05-06 15:23 | 55.48729 | -103.87827 | 35195 ft | 449 kts | 42° |
| 2026-05-06 15:24 | 55.52928 | -103.79743 | 35191 ft | 449 kts | 42° |
| 2026-05-06 15:24 | 55.57142 | -103.71606 | 35186 ft | 449 kts | 42° |
| 2026-05-06 15:25 | 55.61357 | -103.63442 | 35187 ft | 449 kts | 42° |
| 2026-05-06 15:25 | 55.65558 | -103.55277 | 35188 ft | 449 kts | 42° |
| 2026-05-06 15:26 | 55.69775 | -103.47072 | 35195 ft | 452 kts | 43° |
| 2026-05-06 15:26 | 55.73996 | -103.38805 | 35189 ft | 452 kts | 43° |
| 2026-05-06 15:27 | 55.78222 | -103.30501 | 35186 ft | 452 kts | 43° |
| 2026-05-06 15:27 | 55.82440 | -103.22186 | 35188 ft | 452 kts | 43° |
| 2026-05-06 15:28 | 55.86649 | -103.13863 | 35187 ft | 452 kts | 43° |
| 2026-05-06 15:28 | 55.90853 | -103.05528 | 35206 ft | 452 kts | 44° |
| 2026-05-06 15:29 | 55.95051 | -102.97173 | 35193 ft | 453 kts | 44° |
| 2026-05-06 15:29 | 55.99252 | -102.88773 | 35189 ft | 453 kts | 44° |
| 2026-05-06 15:30 | 56.03445 | -102.80362 | 35185 ft | 453 kts | 44° |
| 2026-05-06 15:30 | 56.07631 | -102.71937 | 35185 ft | 453 kts | 44° |
| 2026-05-06 15:31 | 56.11814 | -102.63489 | 35189 ft | 453 kts | 44° |
| 2026-05-06 15:31 | 56.15294 | -102.56446 | 35199 ft | 454 kts | 45° |
| 2026-05-06 15:32 | 56.22250 | -102.42284 | 35183 ft | 455 kts | 45° |
| 2026-05-06 15:32 | 56.25748 | -102.35130 | 35187 ft | 454 kts | 45° |
| 2026-05-06 15:33 | 56.29920 | -102.26574 | 35183 ft | 454 kts | 45° |
| 2026-05-06 15:33 | 56.34080 | -102.18010 | 35182 ft | 454 kts | 45° |
| 2026-05-06 15:34 | 56.38247 | -102.09410 | 35188 ft | 455 kts | 45° |
| 2026-05-06 15:34 | 56.42383 | -102.00833 | 35178 ft | 456 kts | 45° |
| 2026-05-06 15:35 | 56.46538 | -101.92183 | 35177 ft | 456 kts | 45° |
| 2026-05-06 15:35 | 56.50723 | -101.83441 | 35176 ft | 456 kts | 45° |
| 2026-05-06 15:36 | 56.54848 | -101.74794 | 35177 ft | 456 kts | 45° |
| 2026-05-06 15:36 | 56.58987 | -101.66085 | 35178 ft | 455 kts | 46° |
| 2026-05-06 15:37 | 56.63131 | -101.57342 | 35184 ft | 457 kts | 46° |
| 2026-05-06 15:37 | 56.67275 | -101.48555 | 35178 ft | 457 kts | 46° |
| 2026-05-06 15:38 | 56.71410 | -101.39756 | 35177 ft | 457 kts | 46° |
| 2026-05-06 15:38 | 56.75533 | -101.30951 | 35176 ft | 457 kts | 46° |
| 2026-05-06 15:39 | 56.79656 | -101.22111 | 35102 ft | 457 kts | 46° |
| 2026-05-06 15:39 | 56.84007 | -101.13676 | 35099 ft | 455 kts | 41° |
| 2026-05-06 15:40 | 56.88589 | -101.05643 | 35099 ft | 454 kts | 40° |
| 2026-05-06 15:40 | 56.93236 | -100.97804 | 35098 ft | 454 kts | 39° |
| 2026-05-06 15:41 | 56.97880 | -100.89940 | 35170 ft | 454 kts | 40° |
| 2026-05-06 15:41 | 57.02502 | -100.82051 | 35171 ft | 454 kts | 40° |
| 2026-05-06 15:42 | 57.07118 | -100.74130 | 35173 ft | 454 kts | 40° |
| 2026-05-06 15:42 | 57.11706 | -100.66225 | 35172 ft | 455 kts | 40° |
| 2026-05-06 15:43 | 57.16336 | -100.58218 | 35171 ft | 457 kts | 40° |
| 2026-05-06 15:43 | 57.20965 | -100.50175 | 35169 ft | 457 kts | 40° |
| 2026-05-06 15:44 | 57.25588 | -100.42115 | 35160 ft | 457 kts | 40° |
| 2026-05-06 15:44 | 57.30203 | -100.34040 | 35166 ft | 457 kts | 41° |
| 2026-05-06 15:45 | 57.34820 | -100.25933 | 35159 ft | 457 kts | 41° |
| 2026-05-06 15:45 | 57.39423 | -100.17824 | 35175 ft | 457 kts | 41° |
| 2026-05-06 15:46 | 57.44046 | -100.09650 | 35167 ft | 459 kts | 41° |
| 2026-05-06 15:46 | 57.48662 | -100.01453 | 35164 ft | 459 kts | 41° |
| 2026-05-06 15:47 | 57.53276 | -99.93230 | 35162 ft | 459 kts | 41° |
| 2026-05-06 15:47 | 57.57882 | -99.84993 | 35159 ft | 459 kts | 41° |
| 2026-05-06 15:48 | 57.62485 | -99.76730 | 35160 ft | 459 kts | 41° |
| 2026-05-06 15:48 | 57.67078 | -99.68454 | 35176 ft | 459 kts | 41° |
| 2026-05-06 15:49 | 57.71686 | -99.60125 | 35159 ft | 460 kts | 42° |
| 2026-05-06 15:49 | 57.76287 | -99.51770 | 35157 ft | 460 kts | 42° |
| 2026-05-06 15:50 | 57.80884 | -99.43394 | 35156 ft | 461 kts | 42° |
| 2026-05-06 15:50 | 57.85476 | -99.34994 | 35155 ft | 461 kts | 42° |
| 2026-05-06 15:51 | 57.90058 | -99.26586 | 35144 ft | 461 kts | 42° |
| 2026-05-06 15:51 | 57.94641 | -99.18141 | 35171 ft | 461 kts | 42° |
| 2026-05-06 15:52 | 57.99227 | -99.09663 | 35144 ft | 462 kts | 43° |
| 2026-05-06 15:52 | 58.03809 | -99.01153 | 35156 ft | 462 kts | 43° |
| 2026-05-06 15:53 | 58.08379 | -98.92632 | 35144 ft | 462 kts | 43° |
| 2026-05-06 15:53 | 58.12955 | -98.84070 | 35157 ft | 462 kts | 43° |
| 2026-05-06 15:54 | 58.17522 | -98.75493 | 35151 ft | 462 kts | 43° |
| 2026-05-06 15:54 | 58.22050 | -98.66959 | 35152 ft | 461 kts | 43° |
| 2026-05-06 15:55 | 58.26603 | -98.58348 | 35148 ft | 462 kts | 43° |
| 2026-05-06 15:55 | 58.31152 | -98.49702 | 35148 ft | 462 kts | 43° |
| 2026-05-06 15:56 | 58.35698 | -98.41031 | 35142 ft | 462 kts | 43° |
| 2026-05-06 15:56 | 58.40095 | -98.32612 | 35142 ft | 462 kts | 43° |
| 2026-05-06 15:57 | 58.44631 | -98.23895 | 35152 ft | 462 kts | 44° |
| 2026-05-06 15:57 | 58.49163 | -98.15153 | 35146 ft | 462 kts | 44° |
| 2026-05-06 15:58 | 58.53657 | -98.06456 | 35150 ft | 463 kts | 44° |
| 2026-05-06 15:58 | 58.58179 | -97.97662 | 35141 ft | 463 kts | 44° |
| 2026-05-06 15:59 | 58.62741 | -97.88758 | 35142 ft | 463 kts | 44° |
| 2026-05-06 15:59 | 58.67264 | -97.79893 | 35234 ft | 466 kts | 44° |
| 2026-05-06 16:00 | 58.69531 | -97.75438 | 35464 ft | 465 kts | 44° |
| 2026-05-06 16:00 | 58.71786 | -97.70995 | 35713 ft | 463 kts | 44° |
| 2026-05-06 16:00 | 58.74037 | -97.66555 | 35910 ft | 463 kts | 44° |
| 2026-05-06 16:00 | 58.76287 | -97.62107 | 36047 ft | 463 kts | 44° |
| 2026-05-06 16:01 | 58.78538 | -97.57648 | 36183 ft | 463 kts | 44° |
| 2026-05-06 16:01 | 58.80788 | -97.53189 | 36291 ft | 464 kts | 45° |
| 2026-05-06 16:01 | 58.85286 | -97.44236 | 36487 ft | 465 kts | 45° |
| 2026-05-06 16:02 | 58.87535 | -97.39743 | 36628 ft | 464 kts | 45° |
| 2026-05-06 16:02 | 58.89779 | -97.35250 | 36725 ft | 464 kts | 45° |
| 2026-05-06 16:02 | 58.92026 | -97.30743 | 36839 ft | 464 kts | 45° |
| 2026-05-06 16:02 | 58.94268 | -97.26239 | 36953 ft | 464 kts | 45° |
| 2026-05-06 16:03 | 58.98744 | -97.17220 | 37120 ft | 465 kts | 45° |
| 2026-05-06 16:03 | 59.03219 | -97.08167 | 37113 ft | 465 kts | 45° |
| 2026-05-06 16:04 | 59.07662 | -96.99149 | 37120 ft | 465 kts | 45° |
| 2026-05-06 16:04 | 59.12129 | -96.90041 | 37108 ft | 465 kts | 46° |
| 2026-05-06 16:05 | 59.16594 | -96.80898 | 37108 ft | 465 kts | 46° |
| 2026-05-06 16:05 | 59.21038 | -96.71758 | 37107 ft | 464 kts | 46° |
| 2026-05-06 16:06 | 59.25480 | -96.62589 | 37098 ft | 464 kts | 46° |
| 2026-05-06 16:06 | 59.29915 | -96.53396 | 37098 ft | 464 kts | 46° |
| 2026-05-06 16:07 | 59.34346 | -96.44176 | 37097 ft | 464 kts | 46° |
| 2026-05-06 16:07 | 59.38770 | -96.34937 | 37087 ft | 464 kts | 46° |
| 2026-05-06 16:08 | 59.43175 | -96.25692 | 37084 ft | 463 kts | 46° |
| 2026-05-06 16:08 | 59.47578 | -96.16419 | 37077 ft | 463 kts | 46° |
| 2026-05-06 16:09 | 59.51967 | -96.07135 | 37086 ft | 463 kts | 47° |
| 2026-05-06 16:09 | 59.56346 | -95.97834 | 37069 ft | 463 kts | 47° |
| 2026-05-06 16:10 | 59.60724 | -95.88497 | 37068 ft | 463 kts | 47° |
| 2026-05-06 16:10 | 59.65093 | -95.79141 | 37071 ft | 463 kts | 47° |
| 2026-05-06 16:11 | 59.69457 | -95.69757 | 37062 ft | 463 kts | 47° |
| 2026-05-06 16:11 | 59.73819 | -95.60338 | 37059 ft | 463 kts | 47° |
| 2026-05-06 16:12 | 59.78139 | -95.50973 | 37041 ft | 463 kts | 47° |
| 2026-05-06 16:12 | 59.82484 | -95.41513 | 37049 ft | 463 kts | 47° |
| 2026-05-06 16:13 | 59.86848 | -95.31969 | 37047 ft | 462 kts | 47° |
| 2026-05-06 16:13 | 59.91171 | -95.22481 | 37036 ft | 463 kts | 47° |
| 2026-05-06 16:14 | 59.95464 | -95.13016 | 37035 ft | 463 kts | 47° |
| 2026-05-06 16:14 | 59.99781 | -95.03456 | 37035 ft | 463 kts | 48° |
| 2026-05-06 16:15 | 60.04088 | -94.93880 | 37020 ft | 463 kts | 48° |
| 2026-05-06 16:15 | 60.08257 | -94.84571 | 37022 ft | 462 kts | 48° |
| 2026-05-06 16:16 | 60.11645 | -94.76979 | 37005 ft | 462 kts | 48° |
| 2026-05-06 16:16 | 60.15292 | -94.68777 | 37011 ft | 462 kts | 48° |
| 2026-05-06 16:17 | 60.18850 | -94.60752 | 37016 ft | 462 kts | 48° |
| 2026-05-06 16:17 | 60.23052 | -94.51232 | 37001 ft | 461 kts | 48° |
| 2026-05-06 16:18 | 60.27309 | -94.41545 | 37001 ft | 462 kts | 49° |
| 2026-05-06 16:18 | 60.31557 | -94.31839 | 36997 ft | 461 kts | 49° |
| 2026-05-06 16:19 | 60.35081 | -94.23754 | 36989 ft | 461 kts | 49° |
| 2026-05-06 16:19 | 60.39320 | -94.13992 | 36986 ft | 462 kts | 49° |
| 2026-05-06 16:20 | 60.43550 | -94.04211 | 36975 ft | 461 kts | 49° |
| 2026-05-06 16:20 | 60.47769 | -93.94408 | 36973 ft | 461 kts | 49° |
| 2026-05-06 16:21 | 60.51975 | -93.84597 | 36974 ft | 460 kts | 49° |
| 2026-05-06 16:21 | 60.56165 | -93.74781 | 36955 ft | 459 kts | 49° |
| 2026-05-06 16:22 | 60.60347 | -93.64942 | 36959 ft | 460 kts | 49° |
| 2026-05-06 16:22 | 60.64529 | -93.55057 | 36958 ft | 461 kts | 49° |
| 2026-05-06 16:23 | 60.68706 | -93.45138 | 36941 ft | 461 kts | 49° |
| 2026-05-06 16:23 | 60.72871 | -93.35211 | 36943 ft | 458 kts | 49° |
| 2026-05-06 16:24 | 60.77028 | -93.25324 | 36928 ft | 458 kts | 49° |
| 2026-05-06 16:24 | 60.81173 | -93.15423 | 36928 ft | 458 kts | 49° |
| 2026-05-06 16:25 | 60.85315 | -93.05480 | 36929 ft | 459 kts | 49° |
| 2026-05-06 16:25 | 60.89461 | -92.95479 | 36916 ft | 458 kts | 49° |
| 2026-05-06 16:26 | 60.93584 | -92.85490 | 36913 ft | 458 kts | 49° |
| 2026-05-06 16:26 | 60.97647 | -92.75601 | 36916 ft | 457 kts | 49° |
| 2026-05-06 16:27 | 61.01742 | -92.65588 | 36889 ft | 457 kts | 49° |
| 2026-05-06 16:27 | 61.05837 | -92.55542 | 36892 ft | 458 kts | 50° |
| 2026-05-06 16:28 | 61.09935 | -92.45436 | 36885 ft | 458 kts | 50° |
| 2026-05-06 16:28 | 61.14018 | -92.35322 | 36883 ft | 457 kts | 50° |
| 2026-05-06 16:29 | 61.18087 | -92.25198 | 36882 ft | 457 kts | 50° |
| 2026-05-06 16:29 | 61.22146 | -92.15057 | 36874 ft | 457 kts | 50° |
| 2026-05-06 16:30 | 61.25551 | -92.06512 | 36883 ft | 458 kts | 50° |
| 2026-05-06 16:30 | 61.30285 | -91.94578 | 36853 ft | 458 kts | 50° |
| 2026-05-06 16:31 | 61.34298 | -91.84419 | 36856 ft | 456 kts | 50° |
| 2026-05-06 16:31 | 61.38320 | -91.74187 | 36858 ft | 456 kts | 50° |
| 2026-05-06 16:32 | 61.42330 | -91.63937 | 36844 ft | 455 kts | 50° |
| 2026-05-06 16:32 | 61.46336 | -91.53655 | 36848 ft | 456 kts | 50° |
| 2026-05-06 16:33 | 61.50349 | -91.43306 | 36845 ft | 457 kts | 51° |
| 2026-05-06 16:34 | 61.56345 | -91.27760 | 36835 ft | 456 kts | 51° |
| 2026-05-06 16:34 | 61.60331 | -91.17363 | 36831 ft | 457 kts | 51° |
| 2026-05-06 16:35 | 61.64304 | -91.06950 | 36812 ft | 456 kts | 51° |
| 2026-05-06 16:35 | 61.68275 | -90.96499 | 36820 ft | 457 kts | 51° |
| 2026-05-06 16:36 | 61.72245 | -90.86000 | 36819 ft | 458 kts | 51° |
| 2026-05-06 16:36 | 61.76209 | -90.75470 | 36804 ft | 457 kts | 51° |
| 2026-05-06 16:37 | 61.80160 | -90.64941 | 36813 ft | 456 kts | 52° |
| 2026-05-06 16:37 | 61.84095 | -90.54390 | 36788 ft | 457 kts | 52° |
| 2026-05-06 16:38 | 61.88026 | -90.43797 | 36791 ft | 457 kts | 52° |
| 2026-05-06 16:38 | 61.91934 | -90.33224 | 36794 ft | 458 kts | 52° |
| 2026-05-06 16:39 | 61.95857 | -90.22568 | 36777 ft | 458 kts | 52° |
| 2026-05-06 16:39 | 61.99773 | -90.11869 | 36781 ft | 457 kts | 52° |
| 2026-05-06 16:40 | 62.03670 | -90.01171 | 36775 ft | 458 kts | 53° |
| 2026-05-06 16:40 | 62.07564 | -89.90441 | 36764 ft | 458 kts | 53° |
| 2026-05-06 16:41 | 62.11449 | -89.79678 | 36770 ft | 457 kts | 53° |
| 2026-05-06 16:41 | 62.15336 | -89.68855 | 36765 ft | 458 kts | 53° |
| 2026-05-06 16:42 | 62.19202 | -89.58042 | 36767 ft | 457 kts | 53° |
| 2026-05-06 16:42 | 62.23060 | -89.47199 | 36756 ft | 457 kts | 53° |
| 2026-05-06 16:43 | 62.26908 | -89.36335 | 36747 ft | 457 kts | 53° |
| 2026-05-06 16:43 | 62.30752 | -89.25432 | 36758 ft | 457 kts | 53° |
| 2026-05-06 16:44 | 62.34593 | -89.14483 | 36752 ft | 458 kts | 54° |
| 2026-05-06 16:44 | 62.38417 | -89.03535 | 36741 ft | 456 kts | 54° |
| 2026-05-06 16:45 | 62.42233 | -88.92554 | 36744 ft | 457 kts | 54° |
| 2026-05-06 16:45 | 62.46036 | -88.81558 | 36723 ft | 456 kts | 54° |
| 2026-05-06 16:46 | 62.49834 | -88.70521 | 36731 ft | 457 kts | 54° |
| 2026-05-06 16:46 | 62.53628 | -88.59448 | 36722 ft | 457 kts | 54° |
| 2026-05-06 16:47 | 62.57408 | -88.48357 | 36720 ft | 457 kts | 54° |
| 2026-05-06 16:47 | 62.61181 | -88.37235 | 36720 ft | 456 kts | 54° |
| 2026-05-06 16:48 | 62.64936 | -88.26109 | 36716 ft | 456 kts | 54° |
| 2026-05-06 16:48 | 62.68686 | -88.14946 | 36707 ft | 457 kts | 54° |
| 2026-05-06 16:49 | 62.72407 | -88.03812 | 36706 ft | 458 kts | 54° |
| 2026-05-06 16:49 | 62.76169 | -87.92505 | 36709 ft | 457 kts | 55° |
| 2026-05-06 16:50 | 62.79899 | -87.81237 | 36698 ft | 457 kts | 55° |
| 2026-05-06 16:50 | 62.83588 | -87.70038 | 36693 ft | 456 kts | 55° |
| 2026-05-06 16:51 | 62.87295 | -87.58723 | 36694 ft | 457 kts | 55° |
| 2026-05-06 16:51 | 62.90996 | -87.47374 | 36684 ft | 458 kts | 55° |
| 2026-05-06 16:52 | 62.94694 | -87.35977 | 36695 ft | 457 kts | 55° |
| 2026-05-06 16:52 | 62.98379 | -87.24564 | 36684 ft | 458 kts | 56° |
| 2026-05-06 16:53 | 63.02056 | -87.13118 | 36683 ft | 457 kts | 56° |
| 2026-05-06 16:53 | 63.05716 | -87.01666 | 36685 ft | 457 kts | 56° |
| 2026-05-06 16:54 | 63.09379 | -86.90148 | 36676 ft | 459 kts | 56° |
| 2026-05-06 16:54 | 63.13041 | -86.78580 | 36673 ft | 458 kts | 56° |
| 2026-05-06 16:55 | 63.16680 | -86.67019 | 36665 ft | 457 kts | 56° |
| 2026-05-06 16:55 | 63.20308 | -86.55432 | 36668 ft | 457 kts | 56° |
| 2026-05-06 16:56 | 63.23921 | -86.43834 | 36671 ft | 457 kts | 56° |
| 2026-05-06 16:56 | 63.27531 | -86.32188 | 36660 ft | 457 kts | 56° |
| 2026-05-06 16:57 | 63.31133 | -86.20510 | 36659 ft | 458 kts | 56° |
| 2026-05-06 16:57 | 63.34729 | -86.08788 | 36668 ft | 459 kts | 57° |
| 2026-05-06 16:58 | 63.38325 | -85.97006 | 36627 ft | 459 kts | 57° |
| 2026-05-06 16:58 | 63.41907 | -85.85213 | 36645 ft | 458 kts | 57° |
| 2026-05-06 16:59 | 63.45476 | -85.73397 | 36657 ft | 458 kts | 57° |
| 2026-05-06 16:59 | 63.49033 | -85.61562 | 36646 ft | 458 kts | 57° |
| 2026-05-06 17:00 | 63.52587 | -85.49670 | 36648 ft | 458 kts | 57° |
| 2026-05-06 17:00 | 63.56123 | -85.37778 | 36651 ft | 458 kts | 57° |
| 2026-05-06 17:01 | 63.59665 | -85.25803 | 36649 ft | 461 kts | 57° |
| 2026-05-06 17:01 | 63.63184 | -85.13843 | 36647 ft | 461 kts | 57° |
| 2026-05-06 17:02 | 63.66713 | -85.01789 | 36627 ft | 461 kts | 58° |
| 2026-05-06 17:02 | 63.70245 | -84.89659 | 36637 ft | 462 kts | 58° |
| 2026-05-06 17:03 | 63.73762 | -84.77506 | 36640 ft | 462 kts | 58° |
| 2026-05-06 17:03 | 63.77273 | -84.65310 | 36636 ft | 462 kts | 58° |
| 2026-05-06 17:04 | 63.80771 | -84.53097 | 36643 ft | 463 kts | 58° |
| 2026-05-06 17:04 | 63.84271 | -84.40810 | 36642 ft | 464 kts | 58° |
| 2026-05-06 17:05 | 63.87768 | -84.28465 | 36632 ft | 464 kts | 58° |
| 2026-05-06 17:05 | 63.91250 | -84.16104 | 36632 ft | 464 kts | 58° |
| 2026-05-06 17:06 | 63.94727 | -84.03704 | 36613 ft | 463 kts | 59° |
| 2026-05-06 17:06 | 63.97593 | -83.93430 | 36625 ft | 462 kts | 59° |
| 2026-05-06 17:07 | 64.01027 | -83.81039 | 36625 ft | 462 kts | 59° |
| 2026-05-06 17:07 | 64.04449 | -83.68631 | 36620 ft | 462 kts | 59° |
| 2026-05-06 17:08 | 64.07869 | -83.56165 | 36619 ft | 463 kts | 59° |
| 2026-05-06 17:08 | 64.11283 | -83.43634 | 36629 ft | 463 kts | 60° |
| 2026-05-06 17:09 | 64.14642 | -83.31029 | 36619 ft | 462 kts | 62° |
| 2026-05-06 17:09 | 64.17605 | -83.17961 | 36622 ft | 461 kts | 65° |
| 2026-05-06 17:10 | 64.20456 | -83.04785 | 36613 ft | 459 kts | 65° |
| 2026-05-06 17:10 | 64.23278 | -82.91659 | 36634 ft | 458 kts | 65° |
| 2026-05-06 17:11 | 64.26095 | -82.78506 | 36634 ft | 459 kts | 65° |
| 2026-05-06 17:11 | 64.28921 | -82.65243 | 36616 ft | 461 kts | 65° |
| 2026-05-06 17:12 | 64.31735 | -82.51952 | 36655 ft | 461 kts | 66° |
| 2026-05-06 17:12 | 64.34533 | -82.38655 | 36637 ft | 460 kts | 66° |
| 2026-05-06 17:13 | 64.37314 | -82.25333 | 36650 ft | 460 kts | 66° |
| 2026-05-06 17:13 | 64.40071 | -82.12066 | 36663 ft | 460 kts | 66° |
| 2026-05-06 17:14 | 64.42850 | -81.98586 | 36648 ft | 461 kts | 66° |
| 2026-05-06 17:14 | 64.45596 | -81.85198 | 36651 ft | 465 kts | 66° |
| 2026-05-06 17:15 | 64.48368 | -81.71601 | 36663 ft | 467 kts | 66° |
| 2026-05-06 17:15 | 64.51135 | -81.57938 | 36668 ft | 467 kts | 66° |
| 2026-05-06 17:16 | 64.53885 | -81.44261 | 36665 ft | 467 kts | 66° |
| 2026-05-06 17:16 | 64.56621 | -81.30566 | 36664 ft | 467 kts | 66° |
| 2026-05-06 17:17 | 64.59348 | -81.16822 | 36646 ft | 467 kts | 67° |
| 2026-05-06 17:17 | 64.62059 | -81.03062 | 36644 ft | 467 kts | 67° |
| 2026-05-06 17:18 | 64.64752 | -80.89308 | 36630 ft | 467 kts | 67° |
| 2026-05-06 17:18 | 64.67441 | -80.75478 | 36636 ft | 467 kts | 67° |
| 2026-05-06 17:19 | 64.70115 | -80.61656 | 36634 ft | 465 kts | 68° |
| 2026-05-06 17:19 | 64.72759 | -80.47864 | 36631 ft | 464 kts | 68° |
| 2026-05-06 17:20 | 64.75390 | -80.34041 | 36632 ft | 464 kts | 68° |
| 2026-05-06 17:20 | 64.78007 | -80.20202 | 36636 ft | 464 kts | 68° |
| 2026-05-06 17:21 | 64.80611 | -80.06356 | 36639 ft | 462 kts | 69° |
| 2026-05-06 17:21 | 64.83191 | -79.92526 | 36636 ft | 462 kts | 69° |
| 2026-05-06 17:22 | 64.85741 | -79.78764 | 36626 ft | 462 kts | 69° |
| 2026-05-06 17:22 | 64.88297 | -79.64872 | 36642 ft | 462 kts | 69° |
| 2026-05-06 17:23 | 64.90840 | -79.50961 | 36641 ft | 462 kts | 69° |
| 2026-05-06 17:23 | 64.93374 | -79.37017 | 36627 ft | 459 kts | 70° |
| 2026-05-06 17:24 | 64.95856 | -79.23249 | 36633 ft | 453 kts | 70° |
| 2026-05-06 17:24 | 64.98301 | -79.09554 | 36644 ft | 451 kts | 70° |
| 2026-05-06 17:25 | 65.00863 | -78.96149 | 36645 ft | 452 kts | 66° |
| 2026-05-06 17:25 | 65.03758 | -78.82923 | 36644 ft | 453 kts | 65° |
| 2026-05-06 17:26 | 65.06669 | -78.69699 | 36651 ft | 453 kts | 65° |
| 2026-05-06 17:26 | 65.09573 | -78.56404 | 36652 ft | 453 kts | 66° |
| 2026-05-06 17:27 | 65.12456 | -78.43107 | 36653 ft | 453 kts | 66° |
| 2026-05-06 17:27 | 65.15326 | -78.29773 | 36646 ft | 452 kts | 66° |
| 2026-05-06 17:28 | 65.18162 | -78.16530 | 36654 ft | 445 kts | 66° |
| 2026-05-06 17:28 | 65.20936 | -78.03486 | 36656 ft | 444 kts | 66° |
| 2026-05-06 17:29 | 65.23716 | -77.90326 | 36666 ft | 444 kts | 66° |
| 2026-05-06 17:29 | 65.26485 | -77.77140 | 36682 ft | 444 kts | 66° |
| 2026-05-06 17:30 | 65.29244 | -77.63921 | 36678 ft | 444 kts | 66° |
| 2026-05-06 17:30 | 65.31989 | -77.50680 | 36677 ft | 444 kts | 66° |
| 2026-05-06 17:31 | 65.34706 | -77.37495 | 36690 ft | 444 kts | 66° |
| 2026-05-06 17:31 | 65.37454 | -77.24070 | 36692 ft | 445 kts | 66° |
| 2026-05-06 17:32 | 65.40152 | -77.10817 | 36676 ft | 444 kts | 67° |
| 2026-05-06 17:32 | 65.42843 | -76.97508 | 36687 ft | 443 kts | 67° |
| 2026-05-06 17:33 | 65.45526 | -76.84155 | 36707 ft | 443 kts | 67° |
| 2026-05-06 17:33 | 65.48193 | -76.70792 | 36705 ft | 443 kts | 67° |
| 2026-05-06 17:34 | 65.50850 | -76.57388 | 36702 ft | 443 kts | 67° |
| 2026-05-06 17:34 | 65.53498 | -76.43953 | 36712 ft | 443 kts | 67° |
| 2026-05-06 17:35 | 65.56152 | -76.30426 | 36714 ft | 448 kts | 67° |
| 2026-05-06 17:35 | 65.58811 | -76.16764 | 36715 ft | 449 kts | 68° |
| 2026-05-06 17:36 | 65.62762 | -75.96234 | 36714 ft | 447 kts | 68° |
| 2026-05-06 17:36 | 65.65374 | -75.82550 | 36723 ft | 446 kts | 68° |
| 2026-05-06 17:37 | 65.67972 | -75.68853 | 36721 ft | 446 kts | 68° |
| 2026-05-06 17:37 | 65.70557 | -75.55146 | 36741 ft | 446 kts | 68° |
| 2026-05-06 17:38 | 65.73132 | -75.41408 | 36741 ft | 447 kts | 68° |
| 2026-05-06 17:38 | 65.75719 | -75.27546 | 36743 ft | 451 kts | 69° |
| 2026-05-06 17:39 | 65.78293 | -75.13587 | 36744 ft | 451 kts | 69° |
| 2026-05-06 17:39 | 65.80852 | -74.99615 | 36761 ft | 451 kts | 69° |
| 2026-05-06 17:40 | 65.83410 | -74.85607 | 36719 ft | 450 kts | 69° |
| 2026-05-06 17:40 | 65.85925 | -74.71744 | 36748 ft | 449 kts | 70° |
| 2026-05-06 17:41 | 65.88432 | -74.57754 | 36776 ft | 449 kts | 70° |
| 2026-05-06 17:41 | 65.90927 | -74.43745 | 36776 ft | 449 kts | 70° |
| 2026-05-06 17:42 | 65.93421 | -74.29655 | 36774 ft | 452 kts | 71° |
| 2026-05-06 17:42 | 65.95903 | -74.15480 | 36793 ft | 452 kts | 71° |
| 2026-05-06 17:43 | 65.98382 | -74.01271 | 36798 ft | 452 kts | 71° |
| 2026-05-06 17:43 | 66.00848 | -73.87055 | 36798 ft | 452 kts | 71° |
| 2026-05-06 17:44 | 66.03304 | -73.72797 | 36797 ft | 452 kts | 71° |
| 2026-05-06 17:44 | 66.05728 | -73.58594 | 36813 ft | 448 kts | 71° |
| 2026-05-06 17:45 | 66.08130 | -73.44450 | 36816 ft | 447 kts | 71° |
| 2026-05-06 17:45 | 66.10520 | -73.30262 | 36814 ft | 448 kts | 71° |
| 2026-05-06 17:46 | 66.12897 | -73.16035 | 36834 ft | 448 kts | 71° |
| 2026-05-06 17:46 | 66.15260 | -73.01780 | 36835 ft | 448 kts | 72° |
| 2026-05-06 17:47 | 66.17591 | -72.87623 | 36833 ft | 448 kts | 72° |
| 2026-05-06 17:47 | 66.19930 | -72.73316 | 36852 ft | 448 kts | 72° |
| 2026-05-06 17:48 | 66.22256 | -72.58988 | 36854 ft | 448 kts | 72° |
| 2026-05-06 17:48 | 66.24570 | -72.44635 | 36829 ft | 449 kts | 72° |
| 2026-05-06 17:49 | 66.26882 | -72.30167 | 36858 ft | 452 kts | 72° |
| 2026-05-06 17:49 | 66.29195 | -72.15569 | 36878 ft | 454 kts | 72° |
| 2026-05-06 17:50 | 66.31503 | -72.00913 | 36874 ft | 455 kts | 72° |
| 2026-05-06 17:50 | 66.33795 | -71.86242 | 36872 ft | 455 kts | 72° |
| 2026-05-06 17:51 | 66.36072 | -71.71540 | 36891 ft | 454 kts | 72° |
| 2026-05-06 17:51 | 66.38337 | -71.56820 | 36892 ft | 454 kts | 73° |
| 2026-05-06 17:52 | 66.40588 | -71.42066 | 36899 ft | 454 kts | 73° |
| 2026-05-06 17:52 | 66.42826 | -71.27286 | 36877 ft | 454 kts | 74° |
| 2026-05-06 17:53 | 66.45035 | -71.12704 | 36907 ft | 445 kts | 75° |
| 2026-05-06 17:53 | 66.47191 | -70.98231 | 36915 ft | 444 kts | 75° |
| 2026-05-06 17:54 | 66.49335 | -70.83708 | 36913 ft | 444 kts | 75° |
| 2026-05-06 17:54 | 66.51105 | -70.71629 | 36929 ft | 444 kts | 75° |
| 2026-05-06 17:55 | 66.53219 | -70.57074 | 36930 ft | 444 kts | 75° |
| 2026-05-06 17:55 | 66.55323 | -70.42487 | 36932 ft | 444 kts | 75° |
| 2026-05-06 17:56 | 66.57412 | -70.27892 | 36943 ft | 444 kts | 75° |
| 2026-05-06 17:56 | 66.59491 | -70.13290 | 36956 ft | 439 kts | 76° |
| 2026-05-06 17:57 | 66.61522 | -69.98892 | 36953 ft | 434 kts | 76° |
| 2026-05-06 17:57 | 66.63526 | -69.84528 | 36952 ft | 434 kts | 76° |
| 2026-05-06 17:58 | 66.65516 | -69.70149 | 36947 ft | 434 kts | 77° |
| 2026-05-06 17:58 | 66.67496 | -69.55740 | 36947 ft | 434 kts | 77° |
| 2026-05-06 17:59 | 66.69461 | -69.41325 | 36948 ft | 434 kts | 77° |
| 2026-05-06 17:59 | 66.71402 | -69.26971 | 36954 ft | 434 kts | 77° |
| 2026-05-06 18:00 | 66.73357 | -69.12382 | 36964 ft | 437 kts | 77° |
| 2026-05-06 18:00 | 66.75274 | -68.97954 | 36946 ft | 431 kts | 77° |
| 2026-05-06 18:01 | 66.77168 | -68.83614 | 36959 ft | 428 kts | 77° |
| 2026-05-06 18:01 | 66.79038 | -68.69285 | 36951 ft | 428 kts | 77° |
| 2026-05-06 18:02 | 66.80898 | -68.54935 | 36957 ft | 428 kts | 77° |
| 2026-05-06 18:02 | 66.82745 | -68.40565 | 36957 ft | 428 kts | 77° |
| 2026-05-06 18:03 | 66.84579 | -68.26172 | 36969 ft | 428 kts | 77° |
| 2026-05-06 18:03 | 66.86400 | -68.11760 | 36971 ft | 428 kts | 77° |
| 2026-05-06 18:04 | 66.88207 | -67.97331 | 36939 ft | 427 kts | 77° |
| 2026-05-06 18:04 | 66.90002 | -67.82856 | 36967 ft | 428 kts | 77° |
| 2026-05-06 18:05 | 66.91787 | -67.68358 | 36975 ft | 429 kts | 77° |
| 2026-05-06 18:05 | 66.93562 | -67.53816 | 36974 ft | 429 kts | 78° |
| 2026-05-06 18:06 | 66.95324 | -67.39233 | 36961 ft | 431 kts | 78° |
| 2026-05-06 18:06 | 66.97081 | -67.24553 | 36981 ft | 432 kts | 78° |
| 2026-05-06 18:07 | 66.98846 | -67.09871 | 36978 ft | 432 kts | 76° |
| 2026-05-06 18:07 | 67.01008 | -66.95458 | 36987 ft | 435 kts | 71° |
| 2026-05-06 18:08 | 67.03666 | -66.81441 | 36966 ft | 439 kts | 68° |
| 2026-05-06 18:08 | 67.06459 | -66.67404 | 36993 ft | 443 kts | 68° |
| 2026-05-06 18:09 | 67.09256 | -66.53298 | 37003 ft | 443 kts | 68° |
| 2026-05-06 18:09 | 67.12038 | -66.39148 | 37002 ft | 443 kts | 68° |
| 2026-05-06 18:10 | 67.14806 | -66.24970 | 37007 ft | 443 kts | 69° |
| 2026-05-06 18:10 | 67.17557 | -66.10772 | 37013 ft | 443 kts | 69° |
| 2026-05-06 18:11 | 67.20295 | -65.96541 | 37061 ft | 443 kts | 69° |
| 2026-05-06 18:11 | 67.23020 | -65.82273 | 37062 ft | 442 kts | 69° |
| 2026-05-06 18:12 | 67.25731 | -65.67985 | 37055 ft | 442 kts | 69° |
| 2026-05-06 18:12 | 67.28427 | -65.53674 | 37079 ft | 442 kts | 69° |
| 2026-05-06 18:13 | 67.31095 | -65.39386 | 37098 ft | 444 kts | 69° |
| 2026-05-06 18:13 | 67.33783 | -65.24900 | 37102 ft | 448 kts | 69° |
| 2026-05-06 18:14 | 67.36483 | -65.10281 | 37122 ft | 449 kts | 69° |
| 2026-05-06 18:14 | 67.39170 | -64.95626 | 37140 ft | 449 kts | 69° |
| 2026-05-06 18:15 | 67.41840 | -64.80954 | 37140 ft | 448 kts | 69° |
| 2026-05-06 18:15 | 67.44498 | -64.66226 | 37162 ft | 448 kts | 69° |
| 2026-05-06 18:16 | 67.47137 | -64.51500 | 37162 ft | 448 kts | 69° |
| 2026-05-06 18:16 | 67.49764 | -64.36732 | 37180 ft | 448 kts | 69° |
| 2026-05-06 18:17 | 67.52386 | -64.21867 | 37192 ft | 452 kts | 69° |
| 2026-05-06 18:17 | 67.55005 | -64.06905 | 37197 ft | 452 kts | 69° |
| 2026-05-06 18:18 | 67.57617 | -63.91909 | 37200 ft | 452 kts | 69° |
| 2026-05-06 18:18 | 67.60213 | -63.76884 | 37201 ft | 452 kts | 69° |
| 2026-05-06 18:19 | 67.62795 | -63.61819 | 37203 ft | 452 kts | 69° |
| 2026-05-06 18:19 | 67.65360 | -63.46738 | 37205 ft | 452 kts | 70° |
| 2026-05-06 18:20 | 67.67912 | -63.31615 | 37199 ft | 452 kts | 70° |
| 2026-05-06 18:20 | 67.70432 | -63.16539 | 37193 ft | 455 kts | 69° |
| 2026-05-06 18:21 | 67.72979 | -63.01220 | 37199 ft | 456 kts | 70° |
| 2026-05-06 18:21 | 67.75510 | -62.85880 | 37199 ft | 455 kts | 70° |
| 2026-05-06 18:22 | 67.78022 | -62.70523 | 37193 ft | 454 kts | 70° |
| 2026-05-06 18:22 | 67.80520 | -62.55145 | 37196 ft | 454 kts | 70° |
| 2026-05-06 18:23 | 67.83000 | -62.39746 | 37198 ft | 454 kts | 70° |
| 2026-05-06 18:23 | 67.85463 | -62.24333 | 37198 ft | 454 kts | 70° |
| 2026-05-06 18:24 | 67.87918 | -62.08804 | 37194 ft | 458 kts | 70° |
| 2026-05-06 18:24 | 67.90381 | -61.93150 | 37194 ft | 459 kts | 70° |
| 2026-05-06 18:25 | 67.92826 | -61.77483 | 37219 ft | 459 kts | 70° |
| 2026-05-06 18:25 | 67.95258 | -61.61759 | 37214 ft | 459 kts | 70° |
| 2026-05-06 18:26 | 67.97674 | -61.46006 | 37206 ft | 459 kts | 70° |
| 2026-05-06 18:26 | 68.00071 | -61.30235 | 37228 ft | 458 kts | 70° |
| 2026-05-06 18:27 | 68.02448 | -61.14476 | 37219 ft | 458 kts | 70° |
| 2026-05-06 18:27 | 68.04809 | -60.98645 | 37224 ft | 460 kts | 70° |
| 2026-05-06 18:28 | 68.07173 | -60.82725 | 37231 ft | 460 kts | 70° |
| 2026-05-06 18:28 | 68.09522 | -60.66767 | 37231 ft | 460 kts | 70° |
| 2026-05-06 18:29 | 68.11837 | -60.50890 | 37237 ft | 460 kts | 70° |
| 2026-05-06 18:29 | 68.14155 | -60.34853 | 37242 ft | 460 kts | 70° |
| 2026-05-06 18:30 | 68.16457 | -60.18788 | 37245 ft | 460 kts | 71° |
| 2026-05-06 18:30 | 68.18740 | -60.02708 | 37246 ft | 460 kts | 71° |
| 2026-05-06 18:31 | 68.21008 | -59.86543 | 37248 ft | 462 kts | 70° |
| 2026-05-06 18:31 | 68.23274 | -59.70342 | 37253 ft | 462 kts | 70° |
| 2026-05-06 18:32 | 68.25526 | -59.54079 | 37252 ft | 462 kts | 70° |
| 2026-05-06 18:32 | 68.27760 | -59.37786 | 37252 ft | 462 kts | 70° |
| 2026-05-06 18:33 | 68.29975 | -59.21468 | 37254 ft | 462 kts | 71° |
| 2026-05-06 18:33 | 68.32172 | -59.05131 | 37256 ft | 462 kts | 71° |
| 2026-05-06 18:34 | 68.34354 | -58.88759 | 37258 ft | 462 kts | 71° |
| 2026-05-06 18:34 | 68.36518 | -58.72369 | 37262 ft | 462 kts | 71° |
| 2026-05-06 18:35 | 68.38669 | -58.55922 | 37266 ft | 462 kts | 71° |
| 2026-05-06 18:35 | 68.40803 | -58.39454 | 37265 ft | 462 kts | 71° |
| 2026-05-06 18:36 | 68.42921 | -58.22953 | 37266 ft | 462 kts | 71° |
| 2026-05-06 18:36 | 68.45023 | -58.06418 | 37268 ft | 462 kts | 72° |
| 2026-05-06 18:37 | 68.46753 | -57.92690 | 37270 ft | 462 kts | 72° |
| 2026-05-06 18:37 | 68.49170 | -57.73299 | 37260 ft | 463 kts | 71° |
| 2026-05-06 18:38 | 68.51232 | -57.56565 | 37268 ft | 466 kts | 71° |
| 2026-05-06 18:38 | 68.53277 | -57.39871 | 37274 ft | 466 kts | 71° |
| 2026-05-06 18:39 | 68.55312 | -57.23068 | 37276 ft | 466 kts | 72° |
| 2026-05-06 18:40 | 68.58332 | -56.97781 | 37277 ft | 466 kts | 72° |
| 2026-05-06 18:40 | 68.60327 | -56.80882 | 37279 ft | 465 kts | 72° |
| 2026-05-06 18:41 | 68.62302 | -56.63977 | 37280 ft | 465 kts | 72° |
| 2026-05-06 18:41 | 68.64260 | -56.46991 | 37281 ft | 469 kts | 71° |
| 2026-05-06 18:42 | 68.66220 | -56.29874 | 37289 ft | 470 kts | 72° |
| 2026-05-06 18:42 | 68.68163 | -56.12719 | 37291 ft | 470 kts | 72° |
| 2026-05-06 18:43 | 68.69764 | -55.98437 | 37290 ft | 470 kts | 72° |
| 2026-05-06 18:43 | 68.71673 | -55.81238 | 37289 ft | 470 kts | 72° |
| 2026-05-06 18:44 | 68.73568 | -55.63966 | 37287 ft | 470 kts | 72° |
| 2026-05-06 18:44 | 68.75438 | -55.46717 | 37287 ft | 470 kts | 72° |
| 2026-05-06 18:45 | 68.77292 | -55.29382 | 37302 ft | 472 kts | 72° |
| 2026-05-06 18:45 | 68.79146 | -55.11957 | 37295 ft | 473 kts | 72° |
| 2026-05-06 18:46 | 68.80982 | -54.94493 | 37290 ft | 473 kts | 72° |
| 2026-05-06 18:46 | 68.82798 | -54.76994 | 37294 ft | 473 kts | 72° |
| 2026-05-06 18:47 | 68.84595 | -54.59468 | 37293 ft | 473 kts | 72° |
| 2026-05-06 18:47 | 68.86375 | -54.41904 | 37294 ft | 473 kts | 72° |
| 2026-05-06 18:48 | 68.88137 | -54.24309 | 37296 ft | 473 kts | 73° |
| 2026-05-06 18:48 | 68.89878 | -54.06651 | 37293 ft | 475 kts | 72° |
| 2026-05-06 18:49 | 68.91596 | -53.89072 | 37297 ft | 475 kts | 72° |
| 2026-05-06 18:49 | 68.93325 | -53.71214 | 37294 ft | 475 kts | 72° |
| 2026-05-06 18:50 | 68.95011 | -53.53563 | 37293 ft | 475 kts | 72° |
| 2026-05-06 18:50 | 68.96687 | -53.35764 | 37289 ft | 475 kts | 72° |
| 2026-05-06 18:51 | 68.98342 | -53.17937 | 37287 ft | 475 kts | 73° |
| 2026-05-06 18:51 | 68.99881 | -53.00000 | 37307 ft | 476 kts | 76° |
| 2026-05-06 18:52 | 69.00858 | -52.81621 | 37288 ft | 480 kts | 79° |
| 2026-05-06 18:52 | 69.01688 | -52.63118 | 37284 ft | 481 kts | 79° |
| 2026-05-06 18:53 | 69.02497 | -52.44571 | 37286 ft | 480 kts | 79° |
| 2026-05-06 18:53 | 69.03291 | -52.26049 | 37282 ft | 479 kts | 79° |
| 2026-05-06 18:54 | 69.04070 | -52.07535 | 37273 ft | 479 kts | 79° |
| 2026-05-06 18:54 | 69.04828 | -51.89021 | 37280 ft | 479 kts | 80° |
| 2026-05-06 18:55 | 69.05567 | -51.70479 | 37279 ft | 479 kts | 80° |
| 2026-05-06 18:55 | 69.06280 | -51.51920 | 37275 ft | 481 kts | 79° |
| 2026-05-06 18:56 | 69.06983 | -51.33238 | 37272 ft | 483 kts | 79° |
| 2026-05-06 18:56 | 69.07668 | -51.14521 | 37271 ft | 483 kts | 80° |
| 2026-05-06 18:57 | 69.08321 | -50.95992 | 37285 ft | 481 kts | 79° |
| 2026-05-06 18:57 | 69.08963 | -50.77343 | 37286 ft | 480 kts | 80° |
| 2026-05-06 18:58 | 69.09580 | -50.58678 | 37269 ft | 481 kts | 80° |
| 2026-05-06 18:58 | 69.10185 | -50.40007 | 37267 ft | 481 kts | 80° |
| 2026-05-06 18:59 | 69.10760 | -50.21323 | 37321 ft | 481 kts | 81° |
| 2026-05-06 18:59 | 69.11311 | -50.02577 | 37295 ft | 482 kts | 80° |
| 2026-05-06 19:00 | 69.11851 | -49.83833 | 37299 ft | 483 kts | 80° |
| 2026-05-06 19:00 | 69.12369 | -49.65099 | 37337 ft | 480 kts | 80° |
| 2026-05-06 19:01 | 69.12861 | -49.46471 | 37324 ft | 478 kts | 80° |
| 2026-05-06 19:01 | 69.13337 | -49.27861 | 37337 ft | 479 kts | 80° |
| 2026-05-06 19:02 | 69.13796 | -49.09139 | 37339 ft | 481 kts | 81° |
| 2026-05-06 19:02 | 69.14232 | -48.90398 | 37374 ft | 481 kts | 81° |
| 2026-05-06 19:03 | 69.14644 | -48.71622 | 37403 ft | 482 kts | 80° |
| 2026-05-06 19:03 | 69.15040 | -48.52822 | 37399 ft | 482 kts | 81° |
| 2026-05-06 19:04 | 69.15418 | -48.34002 | 37435 ft | 482 kts | 81° |
| 2026-05-06 19:04 | 69.15770 | -48.15191 | 37464 ft | 480 kts | 81° |
| 2026-05-06 19:05 | 69.16104 | -47.96470 | 37459 ft | 480 kts | 81° |
| 2026-05-06 19:05 | 69.16418 | -47.77715 | 37475 ft | 480 kts | 81° |
| 2026-05-06 19:06 | 69.16712 | -47.58941 | 37490 ft | 480 kts | 81° |
| 2026-05-06 19:06 | 69.16984 | -47.40161 | 37486 ft | 480 kts | 81° |
| 2026-05-06 19:07 | 69.17232 | -47.21375 | 37499 ft | 481 kts | 81° |
| 2026-05-06 19:07 | 69.17466 | -47.02532 | 37493 ft | 482 kts | 81° |
| 2026-05-06 19:08 | 69.17678 | -46.83703 | 37505 ft | 482 kts | 81° |
| 2026-05-06 19:08 | 69.17867 | -46.64878 | 37487 ft | 480 kts | 81° |
| 2026-05-06 19:09 | 69.18038 | -46.46092 | 37479 ft | 480 kts | 82° |
| 2026-05-06 19:09 | 69.18187 | -46.27305 | 37478 ft | 480 kts | 82° |
| 2026-05-06 19:10 | 69.18316 | -46.08490 | 37478 ft | 480 kts | 82° |
| 2026-05-06 19:10 | 69.18425 | -45.89694 | 37475 ft | 481 kts | 82° |
| 2026-05-06 19:11 | 69.18512 | -45.70864 | 37475 ft | 481 kts | 82° |
| 2026-05-06 19:11 | 69.18579 | -45.52172 | 37477 ft | 481 kts | 83° |
| 2026-05-06 19:12 | 69.18626 | -45.33342 | 37485 ft | 480 kts | 83° |
| 2026-05-06 19:12 | 69.18651 | -45.14558 | 37480 ft | 480 kts | 83° |
| 2026-05-06 19:13 | 69.18657 | -44.95788 | 37475 ft | 480 kts | 83° |
| 2026-05-06 19:13 | 69.18642 | -44.76924 | 37476 ft | 480 kts | 83° |
| 2026-05-06 19:14 | 69.18607 | -44.58136 | 37495 ft | 480 kts | 83° |
| 2026-05-06 19:14 | 69.18554 | -44.39316 | 37491 ft | 481 kts | 84° |
| 2026-05-06 19:15 | 69.18476 | -44.20461 | 37482 ft | 482 kts | 84° |
| 2026-05-06 19:15 | 69.18378 | -44.01611 | 37481 ft | 482 kts | 84° |
| 2026-05-06 19:16 | 69.18260 | -43.82777 | 37491 ft | 482 kts | 84° |
| 2026-05-06 19:16 | 69.18122 | -43.63909 | 37497 ft | 482 kts | 84° |
| 2026-05-06 19:17 | 69.17963 | -43.45031 | 37496 ft | 482 kts | 85° |
| 2026-05-06 19:17 | 69.17783 | -43.26158 | 37503 ft | 482 kts | 85° |
| 2026-05-06 19:18 | 69.17583 | -43.07273 | 37539 ft | 483 kts | 85° |
| 2026-05-06 19:18 | 69.17363 | -42.88358 | 37503 ft | 484 kts | 85° |
| 2026-05-06 19:19 | 69.17118 | -42.69441 | 37520 ft | 484 kts | 86° |
| 2026-05-06 19:19 | 69.16856 | -42.50535 | 37522 ft | 483 kts | 86° |
| 2026-05-06 19:20 | 69.16571 | -42.31640 | 37513 ft | 483 kts | 86° |
| 2026-05-06 19:20 | 69.16268 | -42.12884 | 37518 ft | 483 kts | 86° |
| 2026-05-06 19:21 | 69.15943 | -41.94016 | 37521 ft | 484 kts | 86° |
| 2026-05-06 19:21 | 69.15597 | -41.75124 | 37523 ft | 484 kts | 87° |
| 2026-05-06 19:22 | 69.15232 | -41.56217 | 37543 ft | 485 kts | 87° |
| 2026-05-06 19:22 | 69.14842 | -41.37300 | 37531 ft | 485 kts | 87° |
| 2026-05-06 19:23 | 69.14432 | -41.18362 | 37550 ft | 485 kts | 88° |
| 2026-05-06 19:23 | 69.14002 | -40.99437 | 37529 ft | 485 kts | 88° |
| 2026-05-06 19:24 | 69.13550 | -40.80515 | 37518 ft | 485 kts | 88° |
| 2026-05-06 19:24 | 69.13077 | -40.61583 | 37521 ft | 486 kts | 88° |
| 2026-05-06 19:25 | 69.12584 | -40.42659 | 37523 ft | 486 kts | 88° |
| 2026-05-06 19:25 | 69.12071 | -40.23739 | 37540 ft | 486 kts | 89° |
| 2026-05-06 19:26 | 69.11536 | -40.04835 | 37516 ft | 486 kts | 89° |
| 2026-05-06 19:26 | 69.10980 | -39.85962 | 37511 ft | 486 kts | 89° |
| 2026-05-06 19:27 | 69.10404 | -39.67056 | 37505 ft | 486 kts | 89° |
| 2026-05-06 19:27 | 69.09806 | -39.48179 | 37500 ft | 486 kts | 89° |
| 2026-05-06 19:28 | 69.09188 | -39.29306 | 37502 ft | 486 kts | 90° |
| 2026-05-06 19:28 | 69.08549 | -39.10460 | 37492 ft | 486 kts | 90° |
| 2026-05-06 19:29 | 69.07895 | -38.91754 | 37494 ft | 486 kts | 90° |
| 2026-05-06 19:29 | 69.07216 | -38.72895 | 37498 ft | 486 kts | 90° |
| 2026-05-06 19:30 | 69.06513 | -38.54044 | 37487 ft | 486 kts | 90° |
| 2026-05-06 19:30 | 69.05791 | -38.35219 | 37502 ft | 486 kts | 91° |
| 2026-05-06 19:31 | 69.05051 | -38.16425 | 37490 ft | 485 kts | 91° |
| 2026-05-06 19:31 | 69.03900 | -37.88284 | 37488 ft | 485 kts | 91° |
| 2026-05-06 19:32 | 69.03243 | -37.72711 | 37481 ft | 485 kts | 91° |
| 2026-05-06 19:32 | 69.02428 | -37.53855 | 37483 ft | 486 kts | 91° |
| 2026-05-06 19:33 | 69.01605 | -37.35239 | 37491 ft | 485 kts | 92° |
| 2026-05-06 19:33 | 69.00751 | -37.16536 | 37485 ft | 485 kts | 92° |
| 2026-05-06 19:34 | 68.99723 | -36.97896 | 37505 ft | 488 kts | 97° |
| 2026-05-06 19:34 | 68.98094 | -36.79420 | 37488 ft | 491 kts | 99° |
| 2026-05-06 19:35 | 68.96368 | -36.60991 | 37484 ft | 491 kts | 99° |
| 2026-05-06 19:35 | 68.94626 | -36.42596 | 37488 ft | 491 kts | 100° |
| 2026-05-06 19:36 | 68.92866 | -36.24213 | 37488 ft | 491 kts | 100° |
| 2026-05-06 19:36 | 68.91090 | -36.05878 | 37488 ft | 491 kts | 100° |
| 2026-05-06 19:37 | 68.89294 | -35.87559 | 37498 ft | 491 kts | 100° |
| 2026-05-06 19:37 | 68.87479 | -35.69290 | 37500 ft | 490 kts | 101° |
| 2026-05-06 19:38 | 68.85644 | -35.51059 | 37490 ft | 490 kts | 101° |
| 2026-05-06 19:38 | 68.83793 | -35.32882 | 37486 ft | 490 kts | 101° |
| 2026-05-06 19:39 | 68.81920 | -35.14706 | 37487 ft | 490 kts | 101° |
| 2026-05-06 19:39 | 68.80030 | -34.96584 | 37481 ft | 490 kts | 101° |
| 2026-05-06 19:40 | 68.78118 | -34.78469 | 37479 ft | 490 kts | 102° |
| 2026-05-06 19:40 | 68.76187 | -34.60390 | 37473 ft | 492 kts | 102° |
| 2026-05-06 19:41 | 68.75212 | -34.51316 | 37642 ft | 493 kts | 102° |
| 2026-05-06 19:41 | 68.74230 | -34.42250 | 37973 ft | 491 kts | 102° |
| 2026-05-06 19:41 | 68.73250 | -34.33257 | 38261 ft | 489 kts | 102° |
| 2026-05-06 19:41 | 68.72263 | -34.24264 | 38488 ft | 489 kts | 102° |
| 2026-05-06 19:42 | 68.71275 | -34.15300 | 38663 ft | 489 kts | 103° |
| 2026-05-06 19:42 | 68.70280 | -34.06330 | 38804 ft | 490 kts | 103° |
| 2026-05-06 19:42 | 68.69280 | -33.97363 | 38952 ft | 490 kts | 103° |
| 2026-05-06 19:42 | 68.68276 | -33.88411 | 39106 ft | 490 kts | 103° |
| 2026-05-06 19:43 | 68.67264 | -33.79441 | 39227 ft | 490 kts | 103° |
| 2026-05-06 19:43 | 68.66264 | -33.70622 | 39347 ft | 490 kts | 103° |
| 2026-05-06 19:43 | 68.64219 | -33.52739 | 39411 ft | 490 kts | 103° |
| 2026-05-06 19:44 | 68.62158 | -33.34905 | 39427 ft | 490 kts | 103° |
| 2026-05-06 19:44 | 68.60076 | -33.17097 | 39416 ft | 490 kts | 104° |
| 2026-05-06 19:45 | 68.57979 | -32.99349 | 39416 ft | 490 kts | 104° |
| 2026-05-06 19:45 | 68.55861 | -32.81605 | 39418 ft | 490 kts | 104° |
| 2026-05-06 19:46 | 68.53724 | -32.63904 | 39410 ft | 490 kts | 104° |
| 2026-05-06 19:46 | 68.51571 | -32.46255 | 39404 ft | 490 kts | 104° |
| 2026-05-06 19:47 | 68.49397 | -32.28621 | 39397 ft | 490 kts | 105° |
| 2026-05-06 19:47 | 68.47205 | -32.11018 | 39400 ft | 490 kts | 105° |
| 2026-05-06 19:48 | 68.44995 | -31.93462 | 39401 ft | 490 kts | 105° |
| 2026-05-06 19:48 | 68.42765 | -31.75930 | 39394 ft | 490 kts | 105° |
| 2026-05-06 19:49 | 68.40517 | -31.58422 | 39382 ft | 490 kts | 105° |
| 2026-05-06 19:49 | 68.38249 | -31.40941 | 39390 ft | 490 kts | 105° |
| 2026-05-06 19:50 | 68.35963 | -31.23497 | 39391 ft | 490 kts | 106° |
| 2026-05-06 19:50 | 68.33660 | -31.06099 | 39386 ft | 490 kts | 106° |
| 2026-05-06 19:51 | 68.31340 | -30.88739 | 39385 ft | 490 kts | 106° |
| 2026-05-06 19:51 | 68.28999 | -30.71401 | 39378 ft | 491 kts | 106° |
| 2026-05-06 19:52 | 68.26643 | -30.54115 | 39393 ft | 491 kts | 107° |
| 2026-05-06 19:52 | 68.24266 | -30.36838 | 39379 ft | 490 kts | 107° |
| 2026-05-06 19:53 | 68.21870 | -30.19594 | 39392 ft | 491 kts | 107° |
| 2026-05-06 19:53 | 68.19453 | -30.02365 | 39394 ft | 491 kts | 107° |
| 2026-05-06 19:54 | 68.17028 | -29.85228 | 39386 ft | 491 kts | 107° |
| 2026-05-06 19:54 | 68.14575 | -29.68071 | 39381 ft | 491 kts | 107° |
| 2026-05-06 19:55 | 68.12102 | -29.50942 | 39383 ft | 491 kts | 108° |
| 2026-05-06 19:55 | 68.09616 | -29.33870 | 39383 ft | 491 kts | 108° |
| 2026-05-06 19:56 | 68.07109 | -29.16812 | 39386 ft | 491 kts | 108° |
| 2026-05-06 19:56 | 68.04603 | -28.99919 | 39386 ft | 491 kts | 108° |
| 2026-05-06 19:57 | 68.02063 | -28.82941 | 39395 ft | 492 kts | 108° |
| 2026-05-06 19:57 | 67.99506 | -28.66012 | 39386 ft | 492 kts | 108° |
| 2026-05-06 19:58 | 67.96929 | -28.49100 | 39403 ft | 492 kts | 109° |
| 2026-05-06 19:58 | 67.94335 | -28.32233 | 39390 ft | 492 kts | 109° |
| 2026-05-06 19:59 | 67.91720 | -28.15377 | 39387 ft | 492 kts | 109° |
| 2026-05-06 19:59 | 67.89095 | -27.98608 | 39386 ft | 492 kts | 109° |
| 2026-05-06 20:00 | 67.86448 | -27.81843 | 39387 ft | 492 kts | 109° |
| 2026-05-06 20:00 | 67.83784 | -27.65103 | 39402 ft | 492 kts | 110° |
| 2026-05-06 20:01 | 67.81099 | -27.48397 | 39396 ft | 492 kts | 110° |
| 2026-05-06 20:01 | 67.78402 | -27.31753 | 39398 ft | 492 kts | 110° |
| 2026-05-06 20:02 | 67.75686 | -27.15138 | 39416 ft | 492 kts | 110° |
| 2026-05-06 20:02 | 67.72959 | -26.98582 | 39397 ft | 492 kts | 110° |
| 2026-05-06 20:03 | 67.70209 | -26.82045 | 39396 ft | 492 kts | 111° |
| 2026-05-06 20:03 | 67.67446 | -26.65561 | 39405 ft | 492 kts | 111° |
| 2026-05-06 20:04 | 67.64665 | -26.49108 | 39401 ft | 492 kts | 111° |
| 2026-05-06 20:04 | 67.61886 | -26.32806 | 39402 ft | 492 kts | 111° |
| 2026-05-06 20:05 | 67.59070 | -26.16422 | 39398 ft | 492 kts | 111° |
| 2026-05-06 20:05 | 67.56238 | -26.00079 | 39399 ft | 492 kts | 111° |
| 2026-05-06 20:06 | 67.53392 | -25.83789 | 39395 ft | 492 kts | 112° |
| 2026-05-06 20:06 | 67.50530 | -25.67531 | 39408 ft | 491 kts | 112° |
| 2026-05-06 20:07 | 67.47651 | -25.51305 | 39406 ft | 491 kts | 112° |
| 2026-05-06 20:07 | 67.44758 | -25.35151 | 39406 ft | 491 kts | 112° |
| 2026-05-06 20:08 | 67.41846 | -25.19015 | 39398 ft | 492 kts | 112° |
| 2026-05-06 20:08 | 67.38919 | -25.02926 | 39406 ft | 492 kts | 113° |
| 2026-05-06 20:09 | 67.35980 | -24.86889 | 39406 ft | 492 kts | 113° |
| 2026-05-06 20:09 | 67.33019 | -24.70866 | 39394 ft | 492 kts | 113° |
| 2026-05-06 20:10 | 67.30046 | -24.54888 | 39397 ft | 492 kts | 114° |
| 2026-05-06 20:10 | 67.27054 | -24.38943 | 39409 ft | 491 kts | 114° |
| 2026-05-06 20:11 | 67.24050 | -24.23063 | 39402 ft | 491 kts | 114° |
| 2026-05-06 20:11 | 67.21030 | -24.07217 | 39400 ft | 491 kts | 114° |
| 2026-05-06 20:12 | 67.17994 | -23.91410 | 39392 ft | 491 kts | 114° |
| 2026-05-06 20:12 | 67.14943 | -23.75644 | 39394 ft | 491 kts | 114° |
| 2026-05-06 20:13 | 67.11874 | -23.59904 | 39397 ft | 491 kts | 115° |
| 2026-05-06 20:13 | 67.08791 | -23.44205 | 39396 ft | 491 kts | 115° |
| 2026-05-06 20:14 | 67.05693 | -23.28561 | 39390 ft | 491 kts | 115° |
| 2026-05-06 20:14 | 67.02578 | -23.12954 | 39401 ft | 491 kts | 115° |
| 2026-05-06 20:15 | 66.99798 | -22.97159 | 39395 ft | 489 kts | 109° |
| 2026-05-06 20:15 | 66.97653 | -22.80686 | 39387 ft | 487 kts | 104° |
| 2026-05-06 20:16 | 66.95682 | -22.64096 | 39382 ft | 487 kts | 105° |
| 2026-05-06 20:16 | 66.93689 | -22.47530 | 39384 ft | 488 kts | 105° |
| 2026-05-06 20:17 | 66.91672 | -22.30968 | 39375 ft | 488 kts | 105° |
| 2026-05-06 20:17 | 66.89636 | -22.14433 | 39371 ft | 488 kts | 105° |
| 2026-05-06 20:18 | 66.87931 | -22.00719 | 39388 ft | 489 kts | 105° |
| 2026-05-06 20:18 | 66.85862 | -21.84223 | 39380 ft | 489 kts | 105° |
| 2026-05-06 20:19 | 66.83780 | -21.67757 | 39367 ft | 489 kts | 105° |
| 2026-05-06 20:19 | 66.81679 | -21.51304 | 39355 ft | 489 kts | 106° |
| 2026-05-06 20:20 | 66.79558 | -21.34889 | 39364 ft | 489 kts | 106° |
| 2026-05-06 20:20 | 66.77416 | -21.18496 | 39360 ft | 489 kts | 106° |
| 2026-05-06 20:21 | 66.75258 | -21.02116 | 39350 ft | 490 kts | 106° |
| 2026-05-06 20:21 | 66.73080 | -20.85735 | 39362 ft | 490 kts | 106° |
| 2026-05-06 20:22 | 66.70891 | -20.69400 | 39351 ft | 489 kts | 107° |
| 2026-05-06 20:22 | 66.68682 | -20.53121 | 39344 ft | 490 kts | 107° |
| 2026-05-06 20:23 | 66.66457 | -20.36863 | 39344 ft | 489 kts | 107° |
| 2026-05-06 20:23 | 66.64211 | -20.20637 | 39353 ft | 489 kts | 107° |
| 2026-05-06 20:24 | 66.61957 | -20.04456 | 39341 ft | 489 kts | 108° |
| 2026-05-06 20:24 | 66.59681 | -19.88289 | 39339 ft | 490 kts | 107° |
| 2026-05-06 20:25 | 66.57393 | -19.72140 | 39337 ft | 489 kts | 108° |
| 2026-05-06 20:25 | 66.55087 | -19.56057 | 39330 ft | 489 kts | 108° |
| 2026-05-06 20:26 | 66.52769 | -19.40007 | 39330 ft | 488 kts | 108° |
| 2026-05-06 20:26 | 66.50430 | -19.23985 | 39330 ft | 489 kts | 108° |
| 2026-05-06 20:27 | 66.48079 | -19.07994 | 39322 ft | 488 kts | 108° |
| 2026-05-06 20:27 | 66.45709 | -18.92048 | 39319 ft | 489 kts | 108° |
| 2026-05-06 20:28 | 66.43324 | -18.76101 | 39318 ft | 489 kts | 109° |
| 2026-05-06 20:28 | 66.40919 | -18.60188 | 39320 ft | 490 kts | 109° |
| 2026-05-06 20:29 | 66.38517 | -18.44406 | 39314 ft | 489 kts | 109° |
| 2026-05-06 20:29 | 66.36076 | -18.28533 | 39315 ft | 490 kts | 109° |
| 2026-05-06 20:30 | 66.32389 | -18.04791 | 39307 ft | 490 kts | 109° |
| 2026-05-06 20:31 | 66.29907 | -17.88985 | 39304 ft | 490 kts | 109° |
| 2026-05-06 20:31 | 66.27412 | -17.73220 | 39304 ft | 489 kts | 110° |
| 2026-05-06 20:32 | 66.24905 | -17.57502 | 39306 ft | 489 kts | 110° |
| 2026-05-06 20:32 | 66.22383 | -17.41825 | 39303 ft | 488 kts | 110° |
| 2026-05-06 20:33 | 66.19846 | -17.26199 | 39303 ft | 489 kts | 110° |
| 2026-05-06 20:33 | 66.17280 | -17.10525 | 39290 ft | 489 kts | 110° |
| 2026-05-06 20:34 | 66.14712 | -16.94954 | 39290 ft | 489 kts | 111° |
| 2026-05-06 20:34 | 66.12123 | -16.79391 | 39289 ft | 489 kts | 111° |
| 2026-05-06 20:35 | 66.09523 | -16.63876 | 39283 ft | 489 kts | 111° |
| 2026-05-06 20:35 | 66.06905 | -16.48390 | 39287 ft | 489 kts | 111° |
| 2026-05-06 20:36 | 66.04270 | -16.32925 | 39284 ft | 489 kts | 111° |
| 2026-05-06 20:36 | 66.01624 | -16.17491 | 39277 ft | 489 kts | 111° |
| 2026-05-06 20:37 | 65.98951 | -16.02068 | 39276 ft | 491 kts | 111° |
| 2026-05-06 20:37 | 65.96262 | -15.86643 | 39274 ft | 491 kts | 111° |
| 2026-05-06 20:38 | 65.93559 | -15.71271 | 39271 ft | 491 kts | 112° |
| 2026-05-06 20:38 | 65.90842 | -15.55932 | 39274 ft | 491 kts | 112° |
| 2026-05-06 20:39 | 65.88128 | -15.40735 | 39267 ft | 490 kts | 112° |
| 2026-05-06 20:39 | 65.85382 | -15.25475 | 39264 ft | 490 kts | 112° |
| 2026-05-06 20:40 | 65.82621 | -15.10248 | 39251 ft | 490 kts | 112° |
| 2026-05-06 20:40 | 65.79841 | -14.95021 | 39254 ft | 492 kts | 113° |
| 2026-05-06 20:41 | 65.77044 | -14.79817 | 39255 ft | 491 kts | 113° |
| 2026-05-06 20:41 | 65.74225 | -14.64643 | 39243 ft | 492 kts | 113° |
| 2026-05-06 20:42 | 65.71397 | -14.49487 | 39254 ft | 490 kts | 113° |
| 2026-05-06 20:42 | 65.68553 | -14.34398 | 39236 ft | 492 kts | 113° |
| 2026-05-06 20:43 | 65.65694 | -14.19294 | 39234 ft | 492 kts | 114° |
| 2026-05-06 20:43 | 65.62824 | -14.04274 | 39235 ft | 491 kts | 114° |
| 2026-05-06 20:44 | 65.59931 | -13.89244 | 39220 ft | 492 kts | 114° |
| 2026-05-06 20:44 | 65.57021 | -13.74240 | 39223 ft | 492 kts | 114° |
| 2026-05-06 20:45 | 65.54089 | -13.59244 | 39229 ft | 494 kts | 114° |
| 2026-05-06 20:45 | 65.51162 | -13.44351 | 39214 ft | 493 kts | 114° |
| 2026-05-06 20:46 | 65.48210 | -13.29463 | 39212 ft | 494 kts | 114° |
| 2026-05-06 20:46 | 65.45234 | -13.14546 | 39208 ft | 494 kts | 115° |
| 2026-05-06 20:47 | 65.42248 | -12.99695 | 39200 ft | 494 kts | 115° |
| 2026-05-06 20:47 | 65.39233 | -12.84810 | 39199 ft | 495 kts | 115° |
| 2026-05-06 20:48 | 65.36206 | -12.69975 | 39190 ft | 495 kts | 115° |
| 2026-05-06 20:48 | 65.33150 | -12.55113 | 39204 ft | 499 kts | 115° |
| 2026-05-06 20:49 | 65.30104 | -12.40354 | 39193 ft | 496 kts | 115° |
| 2026-05-06 20:49 | 65.27021 | -12.25561 | 39182 ft | 498 kts | 115° |
| 2026-05-06 20:50 | 65.23914 | -12.10748 | 39181 ft | 498 kts | 116° |
| 2026-05-06 20:50 | 65.20804 | -11.96029 | 39177 ft | 497 kts | 116° |
| 2026-05-06 20:51 | 65.17669 | -11.81298 | 39176 ft | 498 kts | 116° |
| 2026-05-06 20:51 | 65.14531 | -11.66627 | 39162 ft | 496 kts | 116° |
| 2026-05-06 20:52 | 65.11367 | -11.51971 | 39168 ft | 500 kts | 116° |
| 2026-05-06 20:52 | 65.08185 | -11.37318 | 39167 ft | 498 kts | 117° |
| 2026-05-06 20:53 | 65.04997 | -11.22747 | 39152 ft | 498 kts | 117° |
| 2026-05-06 20:53 | 65.01780 | -11.08147 | 39152 ft | 499 kts | 117° |
| 2026-05-06 20:54 | 64.98255 | -10.94063 | 39152 ft | 496 kts | 124° |
| 2026-05-06 20:54 | 64.94310 | -10.80630 | 39143 ft | 499 kts | 124° |
| 2026-05-06 20:55 | 64.90347 | -10.67161 | 39141 ft | 499 kts | 125° |
| 2026-05-06 20:55 | 64.86369 | -10.53707 | 39148 ft | 498 kts | 125° |
| 2026-05-06 20:56 | 64.82395 | -10.40363 | 39139 ft | 499 kts | 125° |
| 2026-05-06 20:56 | 64.78393 | -10.27002 | 39137 ft | 503 kts | 125° |
| 2026-05-06 20:57 | 64.74365 | -10.13635 | 39132 ft | 500 kts | 125° |
| 2026-05-06 20:57 | 64.70344 | -10.00368 | 39125 ft | 499 kts | 126° |
| 2026-05-06 20:58 | 64.66326 | -9.87185 | 39124 ft | 499 kts | 126° |
| 2026-05-06 20:58 | 64.62273 | -9.73959 | 39121 ft | 502 kts | 126° |
| 2026-05-06 20:59 | 64.58241 | -9.60887 | 39123 ft | 499 kts | 126° |
| 2026-05-06 20:59 | 64.54157 | -9.47731 | 39120 ft | 497 kts | 126° |
| 2026-05-06 21:00 | 64.50087 | -9.34689 | 39116 ft | 499 kts | 126° |
| 2026-05-06 21:00 | 64.46019 | -9.21733 | 39118 ft | 500 kts | 126° |
| 2026-05-06 21:01 | 64.41889 | -9.08651 | 39112 ft | 499 kts | 127° |
| 2026-05-06 21:01 | 64.37821 | -8.95839 | 39109 ft | 498 kts | 127° |
| 2026-05-06 21:02 | 64.33705 | -8.82950 | 39101 ft | 500 kts | 127° |
| 2026-05-06 21:02 | 64.29554 | -8.70032 | 39104 ft | 499 kts | 127° |
| 2026-05-06 21:03 | 64.25409 | -8.57204 | 39098 ft | 497 kts | 127° |
| 2026-05-06 21:03 | 64.21263 | -8.44439 | 39092 ft | 499 kts | 127° |
| 2026-05-06 21:04 | 64.17097 | -8.31687 | 39096 ft | 500 kts | 127° |
| 2026-05-06 21:04 | 64.12906 | -8.18938 | 39084 ft | 499 kts | 127° |
| 2026-05-06 21:05 | 64.08719 | -8.06261 | 39087 ft | 497 kts | 128° |
| 2026-05-06 21:05 | 64.05252 | -7.95826 | 39086 ft | 498 kts | 128° |
| 2026-05-06 21:06 | 64.01042 | -7.83218 | 39088 ft | 499 kts | 128° |
| 2026-05-06 21:06 | 63.96832 | -7.70684 | 39085 ft | 498 kts | 128° |
| 2026-05-06 21:07 | 63.92606 | -7.58169 | 39082 ft | 498 kts | 128° |
| 2026-05-06 21:07 | 63.88379 | -7.45719 | 39075 ft | 497 kts | 128° |
| 2026-05-06 21:08 | 63.84136 | -7.33285 | 39069 ft | 498 kts | 129° |
| 2026-05-06 21:08 | 63.79883 | -7.20897 | 39074 ft | 498 kts | 129° |
| 2026-05-06 21:09 | 63.75615 | -7.08536 | 39074 ft | 498 kts | 129° |
| 2026-05-06 21:09 | 63.71374 | -6.96319 | 39082 ft | 497 kts | 129° |
| 2026-05-06 21:10 | 63.67095 | -6.84056 | 39069 ft | 497 kts | 129° |
| 2026-05-06 21:10 | 63.62806 | -6.71834 | 39069 ft | 497 kts | 129° |
| 2026-05-06 21:11 | 63.58507 | -6.59649 | 39052 ft | 497 kts | 129° |
| 2026-05-06 21:11 | 63.54198 | -6.47500 | 39060 ft | 497 kts | 129° |
| 2026-05-06 21:12 | 63.49874 | -6.35375 | 39060 ft | 497 kts | 129° |
| 2026-05-06 21:12 | 63.45537 | -6.23280 | 39057 ft | 497 kts | 130° |
| 2026-05-06 21:13 | 63.41198 | -6.11244 | 39058 ft | 497 kts | 130° |
| 2026-05-06 21:13 | 63.36841 | -5.99224 | 39055 ft | 497 kts | 130° |
| 2026-05-06 21:14 | 63.32475 | -5.87240 | 39052 ft | 497 kts | 130° |
| 2026-05-06 21:14 | 63.28101 | -5.75294 | 39048 ft | 498 kts | 130° |
| 2026-05-06 21:15 | 63.23715 | -5.63388 | 39048 ft | 498 kts | 130° |
| 2026-05-06 21:15 | 63.19310 | -5.51489 | 39049 ft | 498 kts | 130° |
| 2026-05-06 21:16 | 63.14899 | -5.39639 | 39049 ft | 498 kts | 130° |
| 2026-05-06 21:16 | 63.10483 | -5.27833 | 39050 ft | 498 kts | 130° |
| 2026-05-06 21:17 | 63.06048 | -5.16045 | 39047 ft | 498 kts | 131° |
| 2026-05-06 21:17 | 63.01644 | -5.04234 | 39033 ft | 499 kts | 128° |
| 2026-05-06 21:18 | 62.97704 | -4.91678 | 39042 ft | 499 kts | 122° |
| 2026-05-06 21:18 | 62.94162 | -4.78517 | 39044 ft | 500 kts | 121° |
| 2026-05-06 21:19 | 62.90630 | -4.65480 | 39038 ft | 500 kts | 122° |
| 2026-05-06 21:19 | 62.87057 | -4.52386 | 39038 ft | 500 kts | 122° |
| 2026-05-06 21:20 | 62.83472 | -4.39329 | 39045 ft | 499 kts | 122° |
| 2026-05-06 21:20 | 62.79876 | -4.26308 | 39037 ft | 499 kts | 122° |
| 2026-05-06 21:21 | 62.76271 | -4.13332 | 39016 ft | 499 kts | 122° |
| 2026-05-06 21:21 | 62.72651 | -4.00375 | 39032 ft | 500 kts | 122° |
| 2026-05-06 21:22 | 62.69016 | -3.87444 | 39028 ft | 500 kts | 122° |
| 2026-05-06 21:22 | 62.65370 | -3.74547 | 39033 ft | 500 kts | 123° |
| 2026-05-06 21:23 | 62.61714 | -3.61682 | 39033 ft | 500 kts | 123° |
| 2026-05-06 21:23 | 62.58048 | -3.48860 | 39028 ft | 499 kts | 123° |
| 2026-05-06 21:24 | 62.54368 | -3.36061 | 39035 ft | 499 kts | 123° |
| 2026-05-06 21:24 | 62.50676 | -3.23292 | 39028 ft | 499 kts | 123° |
| 2026-05-06 21:25 | 62.46977 | -3.10565 | 39014 ft | 500 kts | 123° |
| 2026-05-06 21:25 | 62.43258 | -2.97846 | 39021 ft | 500 kts | 123° |
| 2026-05-06 21:26 | 62.39549 | -2.85234 | 39026 ft | 500 kts | 124° |
| 2026-05-06 21:26 | 62.35805 | -2.72574 | 39022 ft | 500 kts | 124° |
| 2026-05-06 21:27 | 62.32049 | -2.59941 | 39022 ft | 500 kts | 124° |
| 2026-05-06 21:27 | 62.28284 | -2.47351 | 39022 ft | 500 kts | 124° |
| 2026-05-06 21:28 | 62.24504 | -2.34775 | 39019 ft | 500 kts | 124° |
| 2026-05-06 21:28 | 62.20717 | -2.22246 | 39000 ft | 500 kts | 124° |
| 2026-05-06 21:29 | 62.16920 | -2.09747 | 39015 ft | 501 kts | 124° |
| 2026-05-06 21:29 | 62.13103 | -1.97261 | 39015 ft | 501 kts | 125° |
| 2026-05-06 21:30 | 62.09278 | -1.84818 | 39013 ft | 501 kts | 125° |
| 2026-05-06 21:30 | 62.05439 | -1.72392 | 39015 ft | 501 kts | 125° |
| 2026-05-06 21:31 | 62.01586 | -1.59990 | 39019 ft | 501 kts | 125° |
| 2026-05-06 21:31 | 61.97732 | -1.47650 | 39017 ft | 501 kts | 125° |
| 2026-05-06 21:32 | 61.93886 | -1.35398 | 39019 ft | 501 kts | 126° |
| 2026-05-06 21:32 | 61.88056 | -1.16953 | 39022 ft | 502 kts | 126° |
| 2026-05-06 21:33 | 61.84148 | -1.04677 | 39008 ft | 502 kts | 126° |
| 2026-05-06 21:33 | 61.80231 | -0.92434 | 39020 ft | 502 kts | 126° |
| 2026-05-06 21:34 | 61.76300 | -0.80213 | 39012 ft | 502 kts | 126° |
| 2026-05-06 21:34 | 61.72357 | -0.68019 | 39003 ft | 502 kts | 126° |
| 2026-05-06 21:35 | 61.68406 | -0.55865 | 39017 ft | 502 kts | 126° |
| 2026-05-06 21:35 | 61.64445 | -0.43744 | 39013 ft | 502 kts | 126° |
| 2026-05-06 21:36 | 61.60470 | -0.31640 | 39002 ft | 502 kts | 127° |
| 2026-05-06 21:36 | 61.56490 | -0.19587 | 39008 ft | 502 kts | 127° |
| 2026-05-06 21:37 | 61.52497 | -0.07562 | 39023 ft | 502 kts | 127° |
| 2026-05-06 21:37 | 61.48408 | 0.04299 | 39026 ft | 502 kts | 129° |
| 2026-05-06 21:38 | 61.44158 | 0.15897 | 39009 ft | 502 kts | 129° |
| 2026-05-06 21:38 | 61.39900 | 0.27478 | 39010 ft | 502 kts | 130° |
| 2026-05-06 21:39 | 61.35635 | 0.39022 | 39024 ft | 502 kts | 130° |
| 2026-05-06 21:39 | 61.31389 | 0.50454 | 39008 ft | 502 kts | 130° |
| 2026-05-06 21:40 | 61.27070 | 0.62025 | 39018 ft | 503 kts | 130° |
| 2026-05-06 21:40 | 61.22797 | 0.73417 | 39017 ft | 503 kts | 130° |
| 2026-05-06 21:41 | 61.18482 | 0.84857 | 39018 ft | 503 kts | 130° |
| 2026-05-06 21:41 | 61.14161 | 0.96255 | 39019 ft | 503 kts | 130° |
| 2026-05-06 21:42 | 61.09839 | 1.07603 | 39022 ft | 503 kts | 130° |
| 2026-05-06 21:42 | 61.05495 | 1.18953 | 39024 ft | 503 kts | 130° |
| 2026-05-06 21:43 | 61.01144 | 1.30269 | 39009 ft | 503 kts | 130° |
| 2026-05-06 21:43 | 60.96780 | 1.41562 | 39020 ft | 503 kts | 131° |
| 2026-05-06 21:44 | 60.92413 | 1.52809 | 39023 ft | 503 kts | 131° |
| 2026-05-06 21:44 | 60.88066 | 1.63948 | 39024 ft | 502 kts | 131° |
| 2026-05-06 21:45 | 60.83651 | 1.75205 | 39026 ft | 502 kts | 131° |
| 2026-05-06 21:45 | 60.79256 | 1.86358 | 39028 ft | 502 kts | 131° |
| 2026-05-06 21:46 | 60.74854 | 1.97476 | 39029 ft | 502 kts | 131° |
| 2026-05-06 21:46 | 60.70447 | 2.08555 | 39021 ft | 502 kts | 131° |
| 2026-05-06 21:47 | 60.66031 | 2.19601 | 39024 ft | 501 kts | 132° |
| 2026-05-06 21:47 | 60.61636 | 2.30540 | 39028 ft | 501 kts | 132° |
| 2026-05-06 21:48 | 60.57208 | 2.41508 | 39032 ft | 501 kts | 132° |
| 2026-05-06 21:48 | 60.52773 | 2.52445 | 39038 ft | 501 kts | 132° |
| 2026-05-06 21:49 | 60.48329 | 2.63352 | 39040 ft | 501 kts | 132° |
| 2026-05-06 21:49 | 60.43876 | 2.74232 | 39040 ft | 501 kts | 132° |
| 2026-05-06 21:50 | 60.39418 | 2.85072 | 39038 ft | 500 kts | 133° |
| 2026-05-06 21:50 | 60.34958 | 2.95859 | 39045 ft | 500 kts | 133° |
| 2026-05-06 21:51 | 60.30485 | 3.06628 | 39047 ft | 500 kts | 133° |
| 2026-05-06 21:51 | 60.26001 | 3.17377 | 39047 ft | 500 kts | 133° |
| 2026-05-06 21:52 | 60.21511 | 3.28090 | 39044 ft | 500 kts | 133° |
| 2026-05-06 21:52 | 60.17015 | 3.38773 | 39044 ft | 500 kts | 133° |
| 2026-05-06 21:53 | 60.12510 | 3.49420 | 39024 ft | 500 kts | 133° |
| 2026-05-06 21:53 | 60.08005 | 3.60021 | 39041 ft | 499 kts | 134° |
| 2026-05-06 21:54 | 60.03497 | 3.70575 | 39047 ft | 498 kts | 134° |
| 2026-05-06 21:54 | 59.99023 | 3.81007 | 39059 ft | 498 kts | 134° |
| 2026-05-06 21:55 | 59.94494 | 3.91520 | 39052 ft | 498 kts | 134° |
| 2026-05-06 21:55 | 59.89964 | 4.01985 | 39050 ft | 499 kts | 134° |
| 2026-05-06 21:56 | 59.85313 | 4.12234 | 39058 ft | 498 kts | 137° |
| 2026-05-06 21:56 | 59.80539 | 4.22238 | 39038 ft | 498 kts | 137° |
| 2026-05-06 21:57 | 59.76563 | 4.30551 | 39052 ft | 498 kts | 137° |
| 2026-05-06 21:57 | 59.71775 | 4.40522 | 39056 ft | 498 kts | 137° |
| 2026-05-06 21:58 | 59.66988 | 4.50446 | 39060 ft | 498 kts | 137° |
| 2026-05-06 21:58 | 59.62161 | 4.60408 | 39058 ft | 498 kts | 137° |
| 2026-05-06 21:59 | 59.57358 | 4.70274 | 39060 ft | 498 kts | 137° |
| 2026-05-06 21:59 | 59.52542 | 4.80124 | 39064 ft | 498 kts | 137° |
| 2026-05-06 22:00 | 59.47718 | 4.89944 | 39055 ft | 497 kts | 137° |
| 2026-05-06 22:00 | 59.42913 | 4.99686 | 39071 ft | 497 kts | 137° |
| 2026-05-06 22:01 | 59.38094 | 5.09414 | 39075 ft | 497 kts | 137° |
| 2026-05-06 22:01 | 59.33263 | 5.19125 | 39070 ft | 497 kts | 138° |
| 2026-05-06 22:02 | 59.28431 | 5.28797 | 39073 ft | 496 kts | 138° |
| 2026-05-06 22:02 | 59.23594 | 5.38433 | 39072 ft | 496 kts | 138° |
| 2026-05-06 22:03 | 59.18754 | 5.48032 | 39055 ft | 496 kts | 138° |
| 2026-05-06 22:03 | 59.13901 | 5.57620 | 39064 ft | 496 kts | 138° |
| 2026-05-06 22:04 | 59.09043 | 5.67183 | 39066 ft | 496 kts | 138° |
| 2026-05-06 22:04 | 59.04182 | 5.76708 | 39072 ft | 496 kts | 138° |
| 2026-05-06 22:05 | 58.99312 | 5.86209 | 39071 ft | 496 kts | 138° |
| 2026-05-06 22:05 | 58.94439 | 5.95672 | 39070 ft | 496 kts | 138° |
| 2026-05-06 22:06 | 58.89557 | 6.05114 | 39067 ft | 496 kts | 138° |
| 2026-05-06 22:06 | 58.84660 | 6.14539 | 39060 ft | 497 kts | 138° |
| 2026-05-06 22:07 | 58.79757 | 6.23944 | 39059 ft | 497 kts | 138° |
| 2026-05-06 22:07 | 58.74876 | 6.33269 | 39050 ft | 496 kts | 139° |
| 2026-05-06 22:08 | 58.69943 | 6.42650 | 39059 ft | 494 kts | 139° |
| 2026-05-06 22:08 | 58.65079 | 6.51861 | 39057 ft | 494 kts | 139° |
| 2026-05-06 22:09 | 58.60168 | 6.61122 | 39053 ft | 494 kts | 139° |
| 2026-05-06 22:09 | 58.55259 | 6.70341 | 39054 ft | 494 kts | 139° |
| 2026-05-06 22:10 | 58.50398 | 6.79675 | 39041 ft | 495 kts | 135° |
| 2026-05-06 22:10 | 58.45991 | 6.89850 | 39037 ft | 497 kts | 130° |
| 2026-05-06 22:11 | 58.41783 | 7.00309 | 39037 ft | 495 kts | 131° |
| 2026-05-06 22:11 | 58.37567 | 7.10708 | 39032 ft | 495 kts | 131° |
| 2026-05-06 22:12 | 58.33338 | 7.21083 | 39026 ft | 495 kts | 131° |
| 2026-05-06 22:12 | 58.29105 | 7.31421 | 39026 ft | 495 kts | 131° |
| 2026-05-06 22:13 | 58.24894 | 7.41663 | 39003 ft | 495 kts | 131° |
| 2026-05-06 22:13 | 58.20623 | 7.52014 | 39002 ft | 493 kts | 131° |
| 2026-05-06 22:14 | 58.16382 | 7.62232 | 39005 ft | 493 kts | 132° |
| 2026-05-06 22:14 | 58.12165 | 7.72350 | 38997 ft | 493 kts | 132° |
| 2026-05-06 22:15 | 58.07881 | 7.82589 | 38999 ft | 492 kts | 132° |
| 2026-05-06 22:15 | 58.03687 | 7.92571 | 39009 ft | 492 kts | 132° |
| 2026-05-06 22:16 | 57.99397 | 8.02741 | 39004 ft | 492 kts | 132° |
| 2026-05-06 22:16 | 57.95120 | 8.12833 | 39002 ft | 492 kts | 132° |
| 2026-05-06 22:17 | 57.90837 | 8.22893 | 38989 ft | 492 kts | 132° |
| 2026-05-06 22:17 | 57.86579 | 8.32859 | 38989 ft | 492 kts | 132° |
| 2026-05-06 22:18 | 57.82284 | 8.42869 | 38991 ft | 492 kts | 132° |
| 2026-05-06 22:18 | 57.77983 | 8.52849 | 38981 ft | 492 kts | 133° |
| 2026-05-06 22:19 | 57.73678 | 8.62800 | 38988 ft | 491 kts | 133° |
| 2026-05-06 22:19 | 57.69367 | 8.72716 | 38991 ft | 491 kts | 133° |
| 2026-05-06 22:20 | 57.65048 | 8.82614 | 38992 ft | 491 kts | 133° |
| 2026-05-06 22:20 | 57.60725 | 8.92477 | 38973 ft | 491 kts | 133° |
| 2026-05-06 22:21 | 57.56398 | 9.02310 | 38984 ft | 490 kts | 133° |
| 2026-05-06 22:21 | 57.52071 | 9.12111 | 38983 ft | 489 kts | 133° |
| 2026-05-06 22:22 | 57.47736 | 9.21878 | 38993 ft | 489 kts | 133° |
| 2026-05-06 22:22 | 57.43349 | 9.31542 | 38995 ft | 488 kts | 135° |
| 2026-05-06 22:23 | 57.38821 | 9.40932 | 38997 ft | 488 kts | 136° |
| 2026-05-06 22:23 | 57.34283 | 9.50302 | 39001 ft | 488 kts | 136° |
| 2026-05-06 22:24 | 57.29755 | 9.59665 | 39000 ft | 488 kts | 136° |
| 2026-05-06 22:24 | 57.25226 | 9.69011 | 38997 ft | 487 kts | 136° |
| 2026-05-06 22:25 | 57.20693 | 9.78322 | 39014 ft | 487 kts | 136° |
| 2026-05-06 22:25 | 57.16129 | 9.87551 | 39018 ft | 486 kts | 138° |
| 2026-05-06 22:26 | 57.11173 | 9.95949 | 39019 ft | 482 kts | 145° |
| 2026-05-06 22:26 | 57.05786 | 10.03168 | 39018 ft | 478 kts | 152° |
| 2026-05-06 22:27 | 57.00036 | 10.09181 | 39005 ft | 473 kts | 158° |
| 2026-05-06 22:27 | 56.94221 | 10.14640 | 38983 ft | 473 kts | 157° |
| 2026-05-06 22:28 | 56.88371 | 10.20169 | 39000 ft | 473 kts | 157° |
| 2026-05-06 22:28 | 56.82523 | 10.25678 | 39000 ft | 473 kts | 157° |
| 2026-05-06 22:29 | 56.76671 | 10.31169 | 39000 ft | 473 kts | 157° |
| 2026-05-06 22:29 | 56.70833 | 10.36628 | 38995 ft | 473 kts | 157° |
| 2026-05-06 22:30 | 56.64979 | 10.42081 | 38983 ft | 473 kts | 157° |
| 2026-05-06 22:30 | 56.59115 | 10.47525 | 38992 ft | 473 kts | 157° |
| 2026-05-06 22:31 | 56.53253 | 10.52948 | 38988 ft | 473 kts | 157° |
| 2026-05-06 22:31 | 56.47389 | 10.58355 | 38992 ft | 473 kts | 157° |
| 2026-05-06 22:32 | 56.41524 | 10.63745 | 38992 ft | 473 kts | 157° |
| 2026-05-06 22:32 | 56.35653 | 10.69117 | 38981 ft | 472 kts | 157° |
| 2026-05-06 22:33 | 56.29797 | 10.74463 | 38990 ft | 472 kts | 157° |
| 2026-05-06 22:33 | 56.23938 | 10.79794 | 38995 ft | 472 kts | 157° |
| 2026-05-06 22:34 | 56.18089 | 10.85135 | 38994 ft | 472 kts | 156° |
| 2026-05-06 22:34 | 56.12437 | 10.91259 | 38997 ft | 476 kts | 149° |
| 2026-05-06 22:35 | 56.07100 | 10.98356 | 38985 ft | 477 kts | 147° |
| 2026-05-06 22:35 | 56.01826 | 11.05521 | 38995 ft | 476 kts | 147° |
| 2026-05-06 22:36 | 55.96538 | 11.12666 | 38997 ft | 476 kts | 147° |
| 2026-05-06 22:36 | 55.91243 | 11.19798 | 38997 ft | 476 kts | 147° |
| 2026-05-06 22:37 | 55.85952 | 11.26900 | 38997 ft | 476 kts | 147° |
| 2026-05-06 22:37 | 55.80652 | 11.33989 | 38987 ft | 476 kts | 147° |
| 2026-05-06 22:38 | 55.75355 | 11.41021 | 38985 ft | 475 kts | 147° |
| 2026-05-06 22:38 | 55.70045 | 11.47999 | 39003 ft | 474 kts | 147° |
| 2026-05-06 22:39 | 55.64735 | 11.54958 | 38998 ft | 474 kts | 147° |
| 2026-05-06 22:39 | 55.59424 | 11.61898 | 39007 ft | 474 kts | 147° |
| 2026-05-06 22:40 | 55.54107 | 11.68823 | 38993 ft | 474 kts | 147° |
| 2026-05-06 22:40 | 55.48785 | 11.75732 | 38994 ft | 474 kts | 148° |
| 2026-05-06 22:41 | 55.40843 | 11.86000 | 38999 ft | 473 kts | 148° |
| 2026-05-06 22:42 | 55.35494 | 11.92885 | 38995 ft | 473 kts | 148° |
| 2026-05-06 22:42 | 55.30211 | 11.99664 | 38998 ft | 473 kts | 148° |
| 2026-05-06 22:43 | 55.24888 | 12.06471 | 39000 ft | 473 kts | 148° |
| 2026-05-06 22:43 | 55.20424 | 12.12159 | 38998 ft | 473 kts | 148° |
| 2026-05-06 22:44 | 55.14240 | 12.20038 | 38973 ft | 473 kts | 148° |
| 2026-05-06 22:44 | 55.09779 | 12.25706 | 38986 ft | 473 kts | 148° |
| 2026-05-06 22:45 | 55.04632 | 12.32900 | 38987 ft | 476 kts | 141° |
| 2026-05-06 22:45 | 55.00050 | 12.41339 | 38988 ft | 481 kts | 133° |
| 2026-05-06 22:46 | 54.96180 | 12.50882 | 38990 ft | 486 kts | 124° |
| 2026-05-06 22:46 | 54.92954 | 12.61261 | 38990 ft | 488 kts | 121° |
| 2026-05-06 22:47 | 54.89708 | 12.71608 | 38974 ft | 486 kts | 126° |
| 2026-05-06 22:47 | 54.85874 | 12.81198 | 38978 ft | 482 kts | 132° |
| 2026-05-06 22:48 | 54.81473 | 12.89944 | 38970 ft | 479 kts | 137° |
| 2026-05-06 22:48 | 54.76941 | 12.98401 | 38969 ft | 479 kts | 137° |
| 2026-05-06 22:49 | 54.72435 | 13.06777 | 38970 ft | 479 kts | 137° |
| 2026-05-06 22:49 | 54.67851 | 13.15262 | 38966 ft | 479 kts | 137° |
| 2026-05-06 22:50 | 54.63104 | 13.23330 | 38968 ft | 476 kts | 143° |
| 2026-05-06 22:50 | 54.57964 | 13.30340 | 38966 ft | 472 kts | 149° |
| 2026-05-06 22:51 | 54.52388 | 13.36364 | 38946 ft | 469 kts | 155° |
| 2026-05-06 22:51 | 54.46588 | 13.41442 | 38957 ft | 467 kts | 157° |
| 2026-05-06 22:52 | 54.40795 | 13.46479 | 38953 ft | 467 kts | 157° |
| 2026-05-06 22:52 | 54.35035 | 13.51478 | 38948 ft | 467 kts | 157° |
| 2026-05-06 22:53 | 54.29238 | 13.56473 | 38944 ft | 466 kts | 158° |
| 2026-05-06 22:53 | 54.23426 | 13.61448 | 38931 ft | 466 kts | 158° |
| 2026-05-06 22:54 | 54.17632 | 13.66401 | 38935 ft | 466 kts | 156° |
| 2026-05-06 22:54 | 54.11998 | 13.71969 | 38934 ft | 469 kts | 151° |
| 2026-05-06 22:55 | 54.06706 | 13.78549 | 38934 ft | 473 kts | 144° |
| 2026-05-06 22:55 | 54.01801 | 13.86084 | 38931 ft | 476 kts | 140° |
| 2026-05-06 22:56 | 53.97023 | 13.93853 | 38933 ft | 476 kts | 141° |
| 2026-05-06 22:56 | 53.92226 | 14.01574 | 38913 ft | 475 kts | 141° |
| 2026-05-06 22:57 | 53.87425 | 14.09250 | 38935 ft | 474 kts | 141° |
| 2026-05-06 22:57 | 53.82624 | 14.16904 | 38936 ft | 474 kts | 141° |
| 2026-05-06 22:58 | 53.77817 | 14.24545 | 38920 ft | 473 kts | 141° |
| 2026-05-06 22:58 | 53.73047 | 14.32209 | 38924 ft | 473 kts | 140° |
| 2026-05-06 22:59 | 53.68382 | 14.40079 | 38922 ft | 474 kts | 138° |
| 2026-05-06 22:59 | 53.63808 | 14.48122 | 38908 ft | 474 kts | 138° |
| 2026-05-06 23:00 | 53.59233 | 14.56131 | 38902 ft | 474 kts | 139° |
| 2026-05-06 23:00 | 53.54651 | 14.64103 | 38888 ft | 473 kts | 139° |
| 2026-05-06 23:01 | 53.50050 | 14.72074 | 38900 ft | 475 kts | 139° |
| 2026-05-06 23:01 | 53.45440 | 14.80025 | 38903 ft | 475 kts | 139° |
| 2026-05-06 23:02 | 53.40852 | 14.87913 | 38894 ft | 475 kts | 139° |
| 2026-05-06 23:02 | 53.36229 | 14.95834 | 38896 ft | 475 kts | 139° |
| 2026-05-06 23:03 | 53.31602 | 15.03738 | 38891 ft | 475 kts | 139° |
| 2026-05-06 23:03 | 53.26977 | 15.11611 | 38882 ft | 474 kts | 139° |
| 2026-05-06 23:04 | 53.22348 | 15.19466 | 38888 ft | 474 kts | 139° |
| 2026-05-06 23:04 | 53.17714 | 15.27303 | 38887 ft | 474 kts | 139° |
| 2026-05-06 23:05 | 53.13076 | 15.35122 | 38885 ft | 474 kts | 139° |
| 2026-05-06 23:05 | 53.08432 | 15.42925 | 38879 ft | 474 kts | 139° |
| 2026-05-06 23:06 | 53.03791 | 15.50702 | 38881 ft | 474 kts | 140° |
| 2026-05-06 23:06 | 52.99142 | 15.58461 | 38879 ft | 474 kts | 140° |
| 2026-05-06 23:07 | 52.94489 | 15.66204 | 38873 ft | 473 kts | 140° |
| 2026-05-06 23:07 | 52.89833 | 15.73926 | 38877 ft | 473 kts | 140° |
| 2026-05-06 23:08 | 52.85175 | 15.81627 | 38871 ft | 473 kts | 140° |
| 2026-05-06 23:08 | 52.80499 | 15.89333 | 38865 ft | 475 kts | 140° |
| 2026-05-06 23:09 | 52.75804 | 15.97046 | 38865 ft | 476 kts | 140° |
| 2026-05-06 23:09 | 52.71141 | 16.04683 | 38866 ft | 476 kts | 140° |
| 2026-05-06 23:10 | 52.66434 | 16.12369 | 38863 ft | 476 kts | 140° |
| 2026-05-06 23:10 | 52.61719 | 16.20045 | 38848 ft | 476 kts | 141° |
| 2026-05-06 23:11 | 52.56988 | 16.27715 | 38843 ft | 478 kts | 141° |
| 2026-05-06 23:11 | 52.52237 | 16.35386 | 38854 ft | 479 kts | 141° |
| 2026-05-06 23:12 | 52.47482 | 16.43046 | 38854 ft | 479 kts | 141° |
| 2026-05-06 23:12 | 52.42714 | 16.50704 | 38854 ft | 479 kts | 141° |
| 2026-05-06 23:13 | 52.37948 | 16.58334 | 38853 ft | 479 kts | 141° |
| 2026-05-06 23:13 | 52.33178 | 16.65945 | 38847 ft | 479 kts | 141° |
| 2026-05-06 23:14 | 52.28399 | 16.73551 | 38851 ft | 479 kts | 141° |
| 2026-05-06 23:14 | 52.23619 | 16.81134 | 38848 ft | 479 kts | 141° |
| 2026-05-06 23:15 | 52.18823 | 16.88713 | 38836 ft | 479 kts | 141° |
| 2026-05-06 23:15 | 52.14067 | 16.96203 | 38811 ft | 479 kts | 141° |
| 2026-05-06 23:16 | 52.09278 | 17.03721 | 38829 ft | 478 kts | 141° |
| 2026-05-06 23:16 | 52.04492 | 17.11218 | 38822 ft | 477 kts | 141° |
| 2026-05-06 23:17 | 51.99697 | 17.18706 | 38822 ft | 477 kts | 141° |
| 2026-05-06 23:17 | 51.94925 | 17.26142 | 38820 ft | 473 kts | 141° |
| 2026-05-06 23:18 | 51.90174 | 17.33507 | 38805 ft | 472 kts | 141° |
| 2026-05-06 23:18 | 51.85433 | 17.40836 | 38813 ft | 471 kts | 141° |
| 2026-05-06 23:19 | 51.80682 | 17.48160 | 38820 ft | 471 kts | 141° |
| 2026-05-06 23:19 | 51.75935 | 17.55453 | 38817 ft | 471 kts | 141° |
| 2026-05-06 23:20 | 51.71180 | 17.62733 | 38811 ft | 471 kts | 141° |
| 2026-05-06 23:20 | 51.66423 | 17.70000 | 38790 ft | 470 kts | 142° |
| 2026-05-06 23:21 | 51.61671 | 17.77238 | 38810 ft | 470 kts | 142° |
| 2026-05-06 23:21 | 51.56918 | 17.84454 | 38813 ft | 470 kts | 142° |
| 2026-05-06 23:22 | 51.52157 | 17.91662 | 38813 ft | 469 kts | 142° |
| 2026-05-06 23:22 | 51.47399 | 17.98842 | 38808 ft | 469 kts | 142° |
| 2026-05-06 23:23 | 51.42643 | 18.05999 | 38794 ft | 470 kts | 142° |
| 2026-05-06 23:23 | 51.37869 | 18.13160 | 38799 ft | 470 kts | 142° |
| 2026-05-06 23:24 | 51.33087 | 18.20314 | 38797 ft | 469 kts | 142° |
| 2026-05-06 23:24 | 51.28337 | 18.27401 | 38807 ft | 467 kts | 142° |
| 2026-05-06 23:25 | 51.23582 | 18.34471 | 38806 ft | 466 kts | 142° |
| 2026-05-06 23:25 | 51.18830 | 18.41520 | 38790 ft | 465 kts | 142° |
| 2026-05-06 23:26 | 51.14124 | 18.48476 | 38803 ft | 464 kts | 142° |
| 2026-05-06 23:26 | 51.09378 | 18.55471 | 38803 ft | 464 kts | 142° |
| 2026-05-06 23:27 | 51.04634 | 18.62444 | 38806 ft | 464 kts | 142° |
| 2026-05-06 23:27 | 50.99892 | 18.69392 | 38792 ft | 463 kts | 142° |
| 2026-05-06 23:28 | 50.95154 | 18.76315 | 38801 ft | 462 kts | 142° |
| 2026-05-06 23:28 | 50.90418 | 18.83212 | 38805 ft | 462 kts | 142° |
| 2026-05-06 23:29 | 50.85692 | 18.90071 | 38809 ft | 462 kts | 143° |
| 2026-05-06 23:29 | 50.81746 | 18.95786 | 38805 ft | 462 kts | 143° |
| 2026-05-06 23:30 | 50.77010 | 19.02630 | 38806 ft | 462 kts | 143° |
| 2026-05-06 23:30 | 50.72251 | 19.09492 | 38808 ft | 464 kts | 143° |
| 2026-05-06 23:31 | 50.67476 | 19.16348 | 38801 ft | 464 kts | 143° |
| 2026-05-06 23:31 | 50.62711 | 19.23177 | 38810 ft | 464 kts | 143° |
| 2026-05-06 23:32 | 50.57926 | 19.30013 | 38803 ft | 464 kts | 143° |
| 2026-05-06 23:32 | 50.53143 | 19.36823 | 38804 ft | 464 kts | 143° |
| 2026-05-06 23:33 | 50.48341 | 19.43638 | 38800 ft | 466 kts | 143° |
| 2026-05-06 23:33 | 50.43545 | 19.50431 | 38804 ft | 467 kts | 143° |
| 2026-05-06 23:34 | 50.38753 | 19.57202 | 38809 ft | 467 kts | 143° |
| 2026-05-06 23:34 | 50.33938 | 19.63981 | 38809 ft | 467 kts | 143° |
| 2026-05-06 23:35 | 50.29160 | 19.70692 | 38795 ft | 468 kts | 143° |
| 2026-05-06 23:35 | 50.24377 | 19.77382 | 38820 ft | 468 kts | 143° |
| 2026-05-06 23:36 | 50.19659 | 19.83974 | 38825 ft | 468 kts | 143° |
| 2026-05-06 23:36 | 50.14853 | 19.90671 | 38826 ft | 468 kts | 143° |
| 2026-05-06 23:37 | 50.09997 | 19.97413 | 38826 ft | 467 kts | 143° |
| 2026-05-06 23:37 | 50.05135 | 20.04140 | 38799 ft | 468 kts | 143° |
| 2026-05-06 23:38 | 50.00260 | 20.10865 | 38817 ft | 468 kts | 143° |
| 2026-05-06 23:38 | 49.95388 | 20.17579 | 38828 ft | 468 kts | 143° |
| 2026-05-06 23:39 | 49.90507 | 20.24285 | 38838 ft | 468 kts | 143° |
| 2026-05-06 23:39 | 49.85655 | 20.30926 | 38834 ft | 468 kts | 143° |
| 2026-05-06 23:40 | 49.80734 | 20.37636 | 38830 ft | 468 kts | 143° |
| 2026-05-06 23:40 | 49.75846 | 20.44288 | 38846 ft | 468 kts | 143° |
| 2026-05-06 23:41 | 49.70992 | 20.50880 | 38845 ft | 467 kts | 143° |
| 2026-05-06 23:41 | 49.66097 | 20.57506 | 38855 ft | 467 kts | 143° |
| 2026-05-06 23:42 | 49.61210 | 20.64105 | 38857 ft | 467 kts | 143° |
| 2026-05-06 23:42 | 49.56298 | 20.70713 | 38854 ft | 469 kts | 143° |
| 2026-05-06 23:43 | 49.51373 | 20.77329 | 38864 ft | 470 kts | 143° |
| 2026-05-06 23:43 | 49.46437 | 20.83941 | 38869 ft | 470 kts | 143° |
| 2026-05-06 23:44 | 49.41505 | 20.90533 | 38872 ft | 470 kts | 143° |
| 2026-05-06 23:44 | 49.36574 | 20.97098 | 38864 ft | 468 kts | 143° |
| 2026-05-06 23:45 | 49.31574 | 21.03469 | 38884 ft | 468 kts | 146° |
| 2026-05-06 23:45 | 49.26443 | 21.09611 | 38885 ft | 468 kts | 146° |
| 2026-05-06 23:46 | 49.21305 | 21.15755 | 38884 ft | 468 kts | 146° |
| 2026-05-06 23:46 | 49.16166 | 21.21882 | 38884 ft | 468 kts | 146° |
| 2026-05-06 23:47 | 49.11022 | 21.27993 | 38891 ft | 468 kts | 146° |
| 2026-05-06 23:47 | 49.05882 | 21.34089 | 38901 ft | 468 kts | 146° |
| 2026-05-06 23:48 | 49.00729 | 21.40185 | 38899 ft | 468 kts | 146° |
| 2026-05-06 23:48 | 48.95582 | 21.46257 | 38902 ft | 468 kts | 146° |
| 2026-05-06 23:49 | 48.90430 | 21.52315 | 38900 ft | 468 kts | 146° |
| 2026-05-06 23:49 | 48.85273 | 21.58368 | 38906 ft | 468 kts | 146° |
| 2026-05-06 23:50 | 48.80117 | 21.64397 | 38902 ft | 468 kts | 146° |
| 2026-05-06 23:50 | 48.72407 | 21.73386 | 38908 ft | 468 kts | 146° |
| 2026-05-06 23:51 | 48.67259 | 21.79370 | 38912 ft | 468 kts | 146° |
| 2026-05-06 23:51 | 48.62088 | 21.85364 | 38913 ft | 468 kts | 146° |
| 2026-05-06 23:52 | 48.56914 | 21.91344 | 38918 ft | 468 kts | 146° |
| 2026-05-06 23:52 | 48.51741 | 21.97309 | 38919 ft | 468 kts | 146° |
| 2026-05-06 23:53 | 48.46579 | 22.03248 | 38915 ft | 468 kts | 146° |
| 2026-05-06 23:53 | 48.41434 | 22.09147 | 38915 ft | 467 kts | 146° |
| 2026-05-06 23:54 | 48.36258 | 22.15068 | 38919 ft | 467 kts | 146° |
| 2026-05-06 23:54 | 48.31081 | 22.20974 | 38927 ft | 467 kts | 146° |
| 2026-05-06 23:55 | 48.25865 | 22.26910 | 38927 ft | 467 kts | 146° |
| 2026-05-06 23:55 | 48.20721 | 22.32748 | 38928 ft | 467 kts | 147° |
| 2026-05-06 23:56 | 48.15563 | 22.38588 | 38925 ft | 466 kts | 147° |
| 2026-05-06 23:56 | 48.10389 | 22.44430 | 38930 ft | 467 kts | 147° |
| 2026-05-06 23:57 | 48.05204 | 22.50269 | 38929 ft | 466 kts | 147° |
| 2026-05-06 23:57 | 48.00027 | 22.56085 | 38934 ft | 466 kts | 147° |
| 2026-05-06 23:58 | 47.94845 | 22.61891 | 38925 ft | 467 kts | 147° |
| 2026-05-06 23:58 | 47.89660 | 22.67685 | 38925 ft | 468 kts | 147° |
| 2026-05-06 23:59 | 47.84510 | 22.73425 | 38942 ft | 468 kts | 147° |
| 2026-05-06 23:59 | 47.79315 | 22.79204 | 38938 ft | 468 kts | 147° |
| 2026-05-07 00:00 | 47.74121 | 22.84966 | 38938 ft | 468 kts | 147° |
| 2026-05-07 00:00 | 47.69790 | 22.89759 | 38930 ft | 469 kts | 147° |
| 2026-05-07 00:01 | 47.63665 | 22.96520 | 38936 ft | 469 kts | 147° |
| 2026-05-07 00:01 | 47.58490 | 23.02219 | 38932 ft | 469 kts | 147° |
| 2026-05-07 00:02 | 47.53270 | 23.07950 | 38952 ft | 468 kts | 147° |
| 2026-05-07 00:02 | 47.48198 | 23.13875 | 38961 ft | 471 kts | 142° |
| 2026-05-07 00:03 | 47.43395 | 23.20534 | 38973 ft | 473 kts | 140° |
| 2026-05-07 00:03 | 47.38662 | 23.27205 | 38984 ft | 473 kts | 140° |
| 2026-05-07 00:04 | 47.33895 | 23.33900 | 38979 ft | 473 kts | 140° |
| 2026-05-07 00:04 | 47.29114 | 23.40592 | 38974 ft | 473 kts | 140° |
| 2026-05-07 00:05 | 47.24332 | 23.47252 | 38989 ft | 473 kts | 140° |
| 2026-05-07 00:05 | 47.19541 | 23.53914 | 38995 ft | 473 kts | 140° |
| 2026-05-07 00:06 | 47.14759 | 23.60552 | 38994 ft | 473 kts | 140° |
| 2026-05-07 00:06 | 47.09963 | 23.67191 | 38998 ft | 473 kts | 140° |
| 2026-05-07 00:07 | 47.05157 | 23.73825 | 38991 ft | 475 kts | 140° |
| 2026-05-07 00:07 | 47.00335 | 23.80474 | 38993 ft | 476 kts | 140° |
| 2026-05-07 00:08 | 46.95513 | 23.87107 | 38992 ft | 475 kts | 140° |
| 2026-05-07 00:08 | 46.90694 | 23.93713 | 38993 ft | 474 kts | 140° |
| 2026-05-07 00:09 | 46.85865 | 24.00303 | 38993 ft | 476 kts | 140° |
| 2026-05-07 00:09 | 46.81050 | 24.06872 | 38997 ft | 477 kts | 140° |
| 2026-05-07 00:10 | 46.76198 | 24.13476 | 39000 ft | 477 kts | 140° |
| 2026-05-07 00:10 | 46.71345 | 24.20061 | 38999 ft | 477 kts | 140° |
| 2026-05-07 00:11 | 46.66525 | 24.26576 | 38995 ft | 477 kts | 140° |
| 2026-05-07 00:11 | 46.61648 | 24.33167 | 39005 ft | 477 kts | 140° |
| 2026-05-07 00:12 | 46.56773 | 24.39733 | 38992 ft | 477 kts | 140° |
| 2026-05-07 00:12 | 46.51895 | 24.46283 | 38991 ft | 477 kts | 140° |
| 2026-05-07 00:13 | 46.47013 | 24.52822 | 38992 ft | 477 kts | 140° |
| 2026-05-07 00:13 | 46.42123 | 24.59355 | 38996 ft | 477 kts | 140° |
| 2026-05-07 00:14 | 46.37233 | 24.65872 | 39017 ft | 477 kts | 140° |
| 2026-05-07 00:14 | 46.32442 | 24.72246 | 39010 ft | 477 kts | 140° |
| 2026-05-07 00:15 | 46.27549 | 24.78725 | 39021 ft | 478 kts | 140° |
| 2026-05-07 00:15 | 46.23439 | 24.84164 | 39024 ft | 478 kts | 140° |
| 2026-05-07 00:16 | 46.17743 | 24.91686 | 39030 ft | 478 kts | 140° |
| 2026-05-07 00:16 | 46.13683 | 24.97033 | 39041 ft | 478 kts | 140° |
| 2026-05-07 00:17 | 46.08770 | 25.03484 | 39033 ft | 479 kts | 140° |
| 2026-05-07 00:17 | 46.03889 | 25.09790 | 39046 ft | 480 kts | 142° |
| 2026-05-07 00:18 | 45.98927 | 25.15777 | 39051 ft | 480 kts | 142° |
| 2026-05-07 00:18 | 45.93812 | 25.21932 | 39050 ft | 480 kts | 142° |
| 2026-05-07 00:19 | 45.88684 | 25.28086 | 39059 ft | 480 kts | 142° |
| 2026-05-07 00:19 | 45.83557 | 25.34232 | 39050 ft | 482 kts | 141° |
| 2026-05-07 00:20 | 45.78410 | 25.40393 | 39048 ft | 482 kts | 142° |
| 2026-05-07 00:20 | 45.73266 | 25.46532 | 39038 ft | 481 kts | 142° |
| 2026-05-07 00:21 | 45.68112 | 25.52662 | 39063 ft | 482 kts | 141° |
| 2026-05-07 00:21 | 45.62950 | 25.58793 | 39073 ft | 482 kts | 141° |
| 2026-05-07 00:22 | 45.57786 | 25.64917 | 39080 ft | 482 kts | 141° |
| 2026-05-07 00:22 | 45.52613 | 25.71031 | 39082 ft | 483 kts | 141° |
| 2026-05-07 00:23 | 45.47472 | 25.77086 | 39093 ft | 483 kts | 141° |
| 2026-05-07 00:23 | 45.42280 | 25.83192 | 39085 ft | 483 kts | 141° |
| 2026-05-07 00:24 | 45.37136 | 25.89227 | 39096 ft | 483 kts | 141° |
| 2026-05-07 00:24 | 45.31940 | 25.95305 | 39100 ft | 483 kts | 141° |
| 2026-05-07 00:25 | 45.26751 | 26.01354 | 39098 ft | 483 kts | 141° |
| 2026-05-07 00:25 | 45.21552 | 26.07408 | 39097 ft | 483 kts | 141° |
| 2026-05-07 00:26 | 45.16349 | 26.13453 | 39097 ft | 484 kts | 141° |
| 2026-05-07 00:26 | 45.11136 | 26.19495 | 39085 ft | 484 kts | 141° |
| 2026-05-07 00:27 | 45.05918 | 26.25521 | 39085 ft | 484 kts | 141° |
| 2026-05-07 00:27 | 45.00696 | 26.31542 | 39079 ft | 484 kts | 141° |
| 2026-05-07 00:28 | 44.95475 | 26.37549 | 39080 ft | 484 kts | 141° |
| 2026-05-07 00:28 | 44.90241 | 26.43555 | 39088 ft | 484 kts | 141° |
| 2026-05-07 00:29 | 44.85007 | 26.49544 | 39076 ft | 484 kts | 141° |
| 2026-05-07 00:30 | 44.74530 | 26.61502 | 39070 ft | 485 kts | 141° |
| 2026-05-07 00:30 | 44.69300 | 26.67512 | 39077 ft | 485 kts | 140° |
| 2026-05-07 00:31 | 44.64225 | 26.73677 | 39067 ft | 485 kts | 139° |
| 2026-05-07 00:31 | 44.59123 | 26.79895 | 39067 ft | 485 kts | 139° |
| 2026-05-07 00:32 | 44.54021 | 26.86072 | 39066 ft | 485 kts | 139° |
| 2026-05-07 00:32 | 44.48899 | 26.92246 | 39059 ft | 486 kts | 139° |
| 2026-05-07 00:33 | 44.43777 | 26.98404 | 39063 ft | 485 kts | 139° |
| 2026-05-07 00:33 | 44.38656 | 27.04543 | 39060 ft | 485 kts | 140° |
| 2026-05-07 00:34 | 44.33522 | 27.10684 | 39062 ft | 485 kts | 140° |
| 2026-05-07 00:34 | 44.28380 | 27.16816 | 39061 ft | 486 kts | 139° |
| 2026-05-07 00:35 | 44.23231 | 27.22947 | 39056 ft | 486 kts | 140° |
| 2026-05-07 00:35 | 44.18075 | 27.29070 | 39057 ft | 486 kts | 140° |
| 2026-05-07 00:36 | 44.12918 | 27.35179 | 39072 ft | 487 kts | 140° |
| 2026-05-07 00:36 | 44.07755 | 27.41281 | 39074 ft | 487 kts | 140° |
| 2026-05-07 00:37 | 44.02578 | 27.47385 | 39070 ft | 487 kts | 140° |
| 2026-05-07 00:37 | 43.97400 | 27.53476 | 39074 ft | 487 kts | 140° |
| 2026-05-07 00:38 | 43.92219 | 27.59556 | 39078 ft | 488 kts | 140° |
| 2026-05-07 00:38 | 43.87028 | 27.65632 | 39084 ft | 488 kts | 140° |
| 2026-05-07 00:39 | 43.81830 | 27.71704 | 39087 ft | 488 kts | 140° |
| 2026-05-07 00:39 | 43.76666 | 27.77722 | 39093 ft | 488 kts | 140° |
| 2026-05-07 00:40 | 43.71421 | 27.83818 | 39095 ft | 489 kts | 140° |
| 2026-05-07 00:40 | 43.66243 | 27.89824 | 39093 ft | 489 kts | 140° |
| 2026-05-07 00:41 | 43.61027 | 27.95859 | 39094 ft | 489 kts | 140° |
| 2026-05-07 00:41 | 43.55803 | 28.01889 | 39103 ft | 490 kts | 140° |
| 2026-05-07 00:42 | 43.50567 | 28.07920 | 39098 ft | 490 kts | 140° |
| 2026-05-07 00:42 | 43.45330 | 28.13937 | 39101 ft | 490 kts | 140° |
| 2026-05-07 00:43 | 43.40085 | 28.19949 | 39107 ft | 490 kts | 140° |
| 2026-05-07 00:43 | 43.34836 | 28.25953 | 39117 ft | 491 kts | 140° |
| 2026-05-07 00:44 | 43.29575 | 28.31959 | 39108 ft | 492 kts | 140° |
| 2026-05-07 00:44 | 43.24392 | 28.37861 | 39114 ft | 492 kts | 140° |
| 2026-05-07 00:45 | 43.19125 | 28.43846 | 39123 ft | 492 kts | 140° |
| 2026-05-07 00:45 | 43.13838 | 28.49837 | 39116 ft | 493 kts | 140° |
| 2026-05-07 00:46 | 43.08802 | 28.56137 | 39114 ft | 492 kts | 133° |
| 2026-05-07 00:46 | 43.04152 | 28.63016 | 39115 ft | 492 kts | 131° |
| 2026-05-07 00:47 | 42.99531 | 28.69926 | 39119 ft | 493 kts | 131° |
| 2026-05-07 00:47 | 42.94889 | 28.76837 | 39116 ft | 493 kts | 131° |
| 2026-05-07 00:48 | 42.90270 | 28.83688 | 39115 ft | 493 kts | 131° |
| 2026-05-07 00:48 | 42.85621 | 28.90562 | 39117 ft | 493 kts | 131° |
| 2026-05-07 00:49 | 42.80966 | 28.97430 | 39113 ft | 493 kts | 132° |
| 2026-05-07 00:49 | 42.76302 | 29.04294 | 39115 ft | 493 kts | 132° |
| 2026-05-07 00:50 | 42.71642 | 29.11135 | 39117 ft | 493 kts | 132° |
| 2026-05-07 00:50 | 42.66972 | 29.17976 | 39110 ft | 494 kts | 132° |
| 2026-05-07 00:51 | 42.62293 | 29.24815 | 39115 ft | 494 kts | 132° |
| 2026-05-07 00:51 | 42.57607 | 29.31647 | 39115 ft | 494 kts | 132° |
| 2026-05-07 00:52 | 42.52919 | 29.38466 | 39114 ft | 494 kts | 132° |
| 2026-05-07 00:52 | 42.48225 | 29.45281 | 39110 ft | 494 kts | 132° |
| 2026-05-07 00:53 | 42.43532 | 29.52078 | 39112 ft | 494 kts | 132° |
| 2026-05-07 00:53 | 42.38832 | 29.58868 | 39116 ft | 493 kts | 132° |
| 2026-05-07 00:54 | 42.33917 | 29.65367 | 39105 ft | 495 kts | 137° |
| 2026-05-07 00:54 | 42.28746 | 29.71523 | 39111 ft | 495 kts | 138° |
| 2026-05-07 00:55 | 42.23571 | 29.77668 | 39124 ft | 495 kts | 138° |
| 2026-05-07 00:55 | 42.18396 | 29.83811 | 39116 ft | 495 kts | 138° |
| 2026-05-07 00:56 | 42.13224 | 29.89941 | 39115 ft | 495 kts | 138° |
| 2026-05-07 00:56 | 42.08045 | 29.96066 | 39115 ft | 495 kts | 138° |
| 2026-05-07 00:57 | 42.02869 | 30.02173 | 39116 ft | 496 kts | 138° |
| 2026-05-07 00:57 | 41.97672 | 30.08293 | 39114 ft | 496 kts | 138° |
| 2026-05-07 00:58 | 41.92477 | 30.14397 | 39110 ft | 496 kts | 138° |
| 2026-05-07 00:58 | 41.87274 | 30.20496 | 39119 ft | 496 kts | 138° |
| 2026-05-07 00:59 | 41.79508 | 30.29575 | 39115 ft | 496 kts | 138° |
| 2026-05-07 01:00 | 41.74297 | 30.35651 | 39109 ft | 496 kts | 138° |
| 2026-05-07 01:00 | 41.69078 | 30.41724 | 39119 ft | 497 kts | 138° |
| 2026-05-07 01:01 | 41.63855 | 30.47788 | 39118 ft | 497 kts | 138° |
| 2026-05-07 01:01 | 41.58657 | 30.53853 | 39117 ft | 496 kts | 137° |
| 2026-05-07 01:02 | 41.53491 | 30.59968 | 39119 ft | 495 kts | 137° |
| 2026-05-07 01:02 | 41.48330 | 30.66057 | 39116 ft | 495 kts | 138° |
| 2026-05-07 01:03 | 41.43241 | 30.72250 | 39111 ft | 495 kts | 134° |
| 2026-05-07 01:03 | 41.38632 | 30.79046 | 39121 ft | 495 kts | 129° |
| 2026-05-07 01:04 | 41.34198 | 30.86043 | 39114 ft | 494 kts | 129° |
| 2026-05-07 01:04 | 41.30498 | 30.91855 | 39115 ft | 494 kts | 129° |
| 2026-05-07 01:05 | 41.26055 | 30.98801 | 39131 ft | 494 kts | 129° |
| 2026-05-07 01:05 | 41.21596 | 31.05752 | 39113 ft | 494 kts | 129° |
| 2026-05-07 01:06 | 41.17151 | 31.12709 | 39111 ft | 494 kts | 129° |
| 2026-05-07 01:06 | 41.12703 | 31.19664 | 39117 ft | 494 kts | 129° |
| 2026-05-07 01:07 | 41.08243 | 31.26611 | 39124 ft | 495 kts | 129° |
| 2026-05-07 01:07 | 41.03776 | 31.33548 | 39125 ft | 495 kts | 129° |
| 2026-05-07 01:08 | 40.99304 | 31.40483 | 39124 ft | 495 kts | 129° |
| 2026-05-07 01:08 | 40.94825 | 31.47418 | 39129 ft | 495 kts | 129° |
| 2026-05-07 01:09 | 40.90343 | 31.54340 | 39135 ft | 495 kts | 129° |
| 2026-05-07 01:09 | 40.85863 | 31.61244 | 39145 ft | 495 kts | 129° |
| 2026-05-07 01:10 | 40.81383 | 31.68134 | 39151 ft | 494 kts | 129° |
| 2026-05-07 01:10 | 40.76894 | 31.75020 | 39150 ft | 494 kts | 129° |
| 2026-05-07 01:11 | 40.72402 | 31.81899 | 39144 ft | 495 kts | 130° |
| 2026-05-07 01:11 | 40.67916 | 31.88751 | 39158 ft | 495 kts | 130° |
| 2026-05-07 01:12 | 40.63406 | 31.95624 | 39156 ft | 495 kts | 130° |
| 2026-05-07 01:12 | 40.58903 | 32.02474 | 39155 ft | 495 kts | 130° |
| 2026-05-07 01:13 | 40.54401 | 32.09308 | 39159 ft | 495 kts | 130° |
| 2026-05-07 01:13 | 40.49889 | 32.16140 | 39155 ft | 495 kts | 130° |
| 2026-05-07 01:14 | 40.45378 | 32.22968 | 39151 ft | 494 kts | 130° |
| 2026-05-07 01:14 | 40.40923 | 32.29752 | 39163 ft | 495 kts | 130° |
| 2026-05-07 01:15 | 40.36430 | 32.36588 | 39151 ft | 495 kts | 130° |
| 2026-05-07 01:15 | 40.31928 | 32.43418 | 39152 ft | 496 kts | 130° |
| 2026-05-07 01:16 | 40.27415 | 32.50250 | 39158 ft | 496 kts | 130° |
| 2026-05-07 01:16 | 40.22889 | 32.57086 | 39158 ft | 496 kts | 130° |
| 2026-05-07 01:17 | 40.18366 | 32.63904 | 39154 ft | 496 kts | 130° |
| 2026-05-07 01:17 | 40.13837 | 32.70717 | 39151 ft | 496 kts | 130° |
| 2026-05-07 01:18 | 40.09137 | 32.77317 | 39150 ft | 497 kts | 136° |
| 2026-05-07 01:18 | 40.03890 | 32.83198 | 39146 ft | 497 kts | 143° |
| 2026-05-07 01:19 | 39.98218 | 32.88214 | 39137 ft | 496 kts | 149° |
| 2026-05-07 01:19 | 39.92360 | 32.92978 | 39146 ft | 496 kts | 149° |
| 2026-05-07 01:20 | 39.86510 | 32.97745 | 39139 ft | 496 kts | 149° |
| 2026-05-07 01:20 | 39.80676 | 33.02504 | 39141 ft | 496 kts | 149° |
| 2026-05-07 01:21 | 39.74827 | 33.07271 | 39136 ft | 496 kts | 149° |
| 2026-05-07 01:21 | 39.68976 | 33.12032 | 39139 ft | 496 kts | 149° |
| 2026-05-07 01:22 | 39.63134 | 33.16777 | 39144 ft | 496 kts | 149° |
| 2026-05-07 01:22 | 39.57285 | 33.21519 | 39143 ft | 496 kts | 149° |
| 2026-05-07 01:23 | 39.51438 | 33.26250 | 39137 ft | 496 kts | 149° |
| 2026-05-07 01:23 | 39.45585 | 33.30973 | 39142 ft | 496 kts | 150° |
| 2026-05-07 01:24 | 39.39563 | 33.35290 | 39147 ft | 495 kts | 153° |
| 2026-05-07 01:24 | 39.33604 | 33.39789 | 39142 ft | 496 kts | 150° |
| 2026-05-07 01:25 | 39.27724 | 33.44405 | 39139 ft | 496 kts | 150° |
| 2026-05-07 01:25 | 39.21836 | 33.49025 | 39136 ft | 496 kts | 150° |
| 2026-05-07 01:26 | 39.15934 | 33.53639 | 39137 ft | 496 kts | 150° |
| 2026-05-07 01:26 | 39.10009 | 33.58262 | 39184 ft | 500 kts | 150° |
| 2026-05-07 01:26 | 39.07037 | 33.60578 | 39302 ft | 500 kts | 150° |
| 2026-05-07 01:27 | 39.04054 | 33.62900 | 39496 ft | 501 kts | 150° |
| 2026-05-07 01:27 | 39.01082 | 33.65213 | 39723 ft | 499 kts | 150° |
| 2026-05-07 01:27 | 38.98107 | 33.67528 | 39963 ft | 498 kts | 151° |
| 2026-05-07 01:27 | 38.95141 | 33.69832 | 40192 ft | 498 kts | 151° |
| 2026-05-07 01:28 | 38.92179 | 33.72130 | 40398 ft | 497 kts | 151° |
| 2026-05-07 01:28 | 38.89214 | 33.74425 | 40566 ft | 497 kts | 151° |
| 2026-05-07 01:28 | 38.86255 | 33.76714 | 40767 ft | 497 kts | 151° |
| 2026-05-07 01:28 | 38.83297 | 33.79000 | 40929 ft | 497 kts | 151° |
| 2026-05-07 01:29 | 38.80334 | 33.81289 | 41111 ft | 496 kts | 151° |
| 2026-05-07 01:29 | 38.74412 | 33.85857 | 41127 ft | 496 kts | 151° |
| 2026-05-07 01:30 | 38.68499 | 33.90411 | 41143 ft | 496 kts | 151° |
| 2026-05-07 01:30 | 38.62617 | 33.94931 | 41146 ft | 496 kts | 151° |
| 2026-05-07 01:31 | 38.56654 | 33.99509 | 41146 ft | 496 kts | 152° |
| 2026-05-07 01:31 | 38.50783 | 34.03999 | 41152 ft | 495 kts | 152° |
| 2026-05-07 01:32 | 38.44873 | 34.08491 | 41150 ft | 495 kts | 152° |
| 2026-05-07 01:32 | 38.38950 | 34.12983 | 41154 ft | 495 kts | 152° |
| 2026-05-07 01:33 | 38.33027 | 34.17471 | 41155 ft | 495 kts | 152° |
| 2026-05-07 01:33 | 38.27097 | 34.21958 | 41151 ft | 495 kts | 152° |
| 2026-05-07 01:34 | 38.21190 | 34.26425 | 41146 ft | 494 kts | 152° |
| 2026-05-07 01:34 | 38.15269 | 34.30887 | 41154 ft | 494 kts | 153° |
| 2026-05-07 01:35 | 38.09353 | 34.35338 | 41150 ft | 494 kts | 153° |
| 2026-05-07 01:35 | 38.03437 | 34.39781 | 41155 ft | 494 kts | 153° |
| 2026-05-07 01:36 | 37.97523 | 34.44217 | 41143 ft | 494 kts | 153° |
| 2026-05-07 01:36 | 37.91645 | 34.48619 | 41096 ft | 495 kts | 153° |
| 2026-05-07 01:37 | 37.85735 | 34.53075 | 41101 ft | 495 kts | 152° |
| 2026-05-07 01:37 | 37.79841 | 34.57570 | 41102 ft | 495 kts | 152° |
| 2026-05-07 01:38 | 37.73955 | 34.62051 | 41116 ft | 495 kts | 152° |
| 2026-05-07 01:38 | 37.68058 | 34.66531 | 41123 ft | 495 kts | 152° |
| 2026-05-07 01:39 | 37.62151 | 34.71006 | 41153 ft | 495 kts | 152° |
| 2026-05-07 01:39 | 37.56229 | 34.75442 | 41139 ft | 494 kts | 153° |
| 2026-05-07 01:40 | 37.50299 | 34.79814 | 41136 ft | 494 kts | 153° |
| 2026-05-07 01:40 | 37.44375 | 34.84178 | 41115 ft | 493 kts | 153° |
| 2026-05-07 01:41 | 37.38448 | 34.88546 | 41121 ft | 494 kts | 153° |
| 2026-05-07 01:41 | 37.32519 | 34.92908 | 41123 ft | 494 kts | 153° |
| 2026-05-07 01:42 | 37.26593 | 34.97260 | 41118 ft | 493 kts | 153° |
| 2026-05-07 01:42 | 37.20670 | 35.01607 | 41108 ft | 493 kts | 154° |
| 2026-05-07 01:43 | 37.14749 | 35.05940 | 41104 ft | 493 kts | 154° |
| 2026-05-07 01:43 | 37.08824 | 35.10268 | 41108 ft | 493 kts | 154° |
| 2026-05-07 01:44 | 37.02945 | 35.14558 | 41102 ft | 493 kts | 154° |
| 2026-05-07 01:44 | 36.96982 | 35.18901 | 41109 ft | 493 kts | 154° |
| 2026-05-07 01:45 | 36.91108 | 35.23348 | 41085 ft | 494 kts | 152° |
| 2026-05-07 01:45 | 36.85339 | 35.27903 | 41097 ft | 493 kts | 152° |
| 2026-05-07 01:46 | 36.79549 | 35.32465 | 41096 ft | 492 kts | 152° |
| 2026-05-07 01:46 | 36.73749 | 35.37028 | 41096 ft | 492 kts | 152° |
| 2026-05-07 01:47 | 36.67958 | 35.41576 | 41092 ft | 492 kts | 152° |
| 2026-05-07 01:47 | 36.62160 | 35.46125 | 41080 ft | 492 kts | 152° |
| 2026-05-07 01:48 | 36.56361 | 35.50663 | 41084 ft | 492 kts | 153° |
| 2026-05-07 01:48 | 36.50564 | 35.55194 | 41089 ft | 492 kts | 153° |
| 2026-05-07 01:49 | 36.44773 | 35.59709 | 41086 ft | 492 kts | 153° |
| 2026-05-07 01:49 | 36.38977 | 35.64220 | 41087 ft | 492 kts | 153° |
| 2026-05-07 01:50 | 36.33293 | 35.68636 | 41082 ft | 492 kts | 153° |
| 2026-05-07 01:50 | 36.27499 | 35.73126 | 41090 ft | 492 kts | 153° |
| 2026-05-07 01:51 | 36.21696 | 35.77620 | 41089 ft | 492 kts | 153° |
| 2026-05-07 01:51 | 36.15893 | 35.82107 | 41092 ft | 492 kts | 153° |
| 2026-05-07 01:52 | 36.10088 | 35.86587 | 41079 ft | 491 kts | 153° |
| 2026-05-07 01:52 | 36.04315 | 35.91038 | 41094 ft | 490 kts | 153° |
| 2026-05-07 01:53 | 35.99501 | 35.94742 | 41097 ft | 490 kts | 153° |
| 2026-05-07 01:53 | 35.93769 | 35.99148 | 41102 ft | 490 kts | 153° |
| 2026-05-07 01:54 | 35.87046 | 36.04282 | 41102 ft | 489 kts | 154° |
| 2026-05-07 01:54 | 35.82122 | 36.07833 | 41085 ft | 488 kts | 155° |
| 2026-05-07 01:55 | 35.76247 | 36.12020 | 41102 ft | 487 kts | 155° |
| 2026-05-07 01:55 | 35.70380 | 36.16216 | 41101 ft | 487 kts | 155° |
| 2026-05-07 01:56 | 35.64526 | 36.20410 | 41103 ft | 487 kts | 155° |
| 2026-05-07 01:56 | 35.58704 | 36.24579 | 41105 ft | 487 kts | 155° |
| 2026-05-07 01:57 | 35.52856 | 36.28766 | 41101 ft | 486 kts | 156° |
| 2026-05-07 01:57 | 35.47020 | 36.32977 | 41104 ft | 487 kts | 154° |
| 2026-05-07 01:58 | 35.41248 | 36.37343 | 41106 ft | 487 kts | 154° |
| 2026-05-07 01:58 | 35.35476 | 36.41719 | 41106 ft | 487 kts | 154° |
| 2026-05-07 01:59 | 35.29702 | 36.46078 | 41113 ft | 487 kts | 154° |
| 2026-05-07 01:59 | 35.23931 | 36.50424 | 41091 ft | 487 kts | 154° |
| 2026-05-07 02:00 | 35.18173 | 36.54748 | 41110 ft | 485 kts | 155° |
| 2026-05-07 02:00 | 35.12419 | 36.59059 | 41116 ft | 485 kts | 155° |
| 2026-05-07 02:01 | 35.06661 | 36.63366 | 41116 ft | 485 kts | 155° |
| 2026-05-07 02:01 | 35.00887 | 36.67678 | 41117 ft | 485 kts | 155° |
| 2026-05-07 02:02 | 34.95129 | 36.71973 | 41115 ft | 485 kts | 155° |
| 2026-05-07 02:02 | 34.89373 | 36.76260 | 41112 ft | 485 kts | 155° |
| 2026-05-07 02:03 | 34.83617 | 36.80539 | 41133 ft | 484 kts | 155° |
| 2026-05-07 02:03 | 34.77859 | 36.84811 | 41128 ft | 484 kts | 155° |
| 2026-05-07 02:04 | 34.72103 | 36.89075 | 41115 ft | 484 kts | 155° |
| 2026-05-07 02:04 | 34.66355 | 36.93328 | 41121 ft | 483 kts | 155° |
| 2026-05-07 02:05 | 34.60650 | 36.97541 | 41123 ft | 483 kts | 155° |
| 2026-05-07 02:05 | 34.54885 | 37.01793 | 41112 ft | 482 kts | 155° |
| 2026-05-07 02:06 | 34.49197 | 37.05980 | 41122 ft | 481 kts | 155° |
| 2026-05-07 02:06 | 34.43471 | 37.10188 | 41124 ft | 481 kts | 155° |
| 2026-05-07 02:07 | 34.37740 | 37.14394 | 41120 ft | 481 kts | 155° |
| 2026-05-07 02:07 | 34.29146 | 37.20693 | 41119 ft | 481 kts | 155° |
| 2026-05-07 02:08 | 34.23416 | 37.24883 | 41110 ft | 480 kts | 156° |
| 2026-05-07 02:08 | 34.17564 | 37.28664 | 41127 ft | 475 kts | 161° |
| 2026-05-07 02:09 | 34.11640 | 37.32194 | 41119 ft | 474 kts | 161° |
| 2026-05-07 02:09 | 34.05727 | 37.35716 | 41113 ft | 474 kts | 161° |
| 2026-05-07 02:10 | 33.99826 | 37.39231 | 41116 ft | 474 kts | 161° |
| 2026-05-07 02:10 | 33.93920 | 37.42746 | 41111 ft | 473 kts | 161° |
| 2026-05-07 02:11 | 33.88009 | 37.46259 | 41098 ft | 473 kts | 161° |
| 2026-05-07 02:11 | 33.82123 | 37.49756 | 41096 ft | 471 kts | 161° |
| 2026-05-07 02:12 | 33.76248 | 37.53236 | 41102 ft | 470 kts | 161° |
| 2026-05-07 02:12 | 33.70378 | 37.56708 | 41097 ft | 470 kts | 161° |
| 2026-05-07 02:13 | 33.64509 | 37.60177 | 41096 ft | 470 kts | 161° |
| 2026-05-07 02:13 | 33.58648 | 37.63638 | 41084 ft | 469 kts | 161° |
| 2026-05-07 02:14 | 33.52784 | 37.67063 | 41090 ft | 468 kts | 162° |
| 2026-05-07 02:14 | 33.46900 | 37.70439 | 41088 ft | 468 kts | 162° |
| 2026-05-07 02:15 | 33.41029 | 37.73805 | 41075 ft | 467 kts | 162° |
| 2026-05-07 02:15 | 33.35157 | 37.77143 | 41084 ft | 466 kts | 162° |
| 2026-05-07 02:16 | 33.29295 | 37.80474 | 41086 ft | 466 kts | 162° |
| 2026-05-07 02:16 | 33.23487 | 37.83773 | 41082 ft | 466 kts | 162° |
| 2026-05-07 02:17 | 33.17630 | 37.87097 | 41082 ft | 466 kts | 162° |
| 2026-05-07 02:17 | 33.11777 | 37.90416 | 41082 ft | 466 kts | 162° |
| 2026-05-07 02:18 | 33.05927 | 37.93731 | 41070 ft | 465 kts | 162° |
| 2026-05-07 02:18 | 33.00085 | 37.97041 | 41067 ft | 465 kts | 163° |
| 2026-05-07 02:19 | 32.94235 | 38.00344 | 41068 ft | 465 kts | 163° |
| 2026-05-07 02:19 | 32.88433 | 38.03778 | 41068 ft | 466 kts | 162° |
| 2026-05-07 02:20 | 32.82639 | 38.07233 | 41056 ft | 466 kts | 162° |
| 2026-05-07 02:20 | 32.76842 | 38.10672 | 41063 ft | 465 kts | 162° |
| 2026-05-07 02:21 | 32.71053 | 38.14104 | 41065 ft | 465 kts | 162° |
| 2026-05-07 02:21 | 32.65255 | 38.17539 | 41065 ft | 465 kts | 162° |
| 2026-05-07 02:22 | 32.59460 | 38.20970 | 41048 ft | 465 kts | 162° |
| 2026-05-07 02:22 | 32.53680 | 38.24386 | 41051 ft | 464 kts | 162° |
| 2026-05-07 02:23 | 32.47903 | 38.27794 | 41066 ft | 464 kts | 162° |
| 2026-05-07 02:23 | 32.42121 | 38.31200 | 41052 ft | 464 kts | 162° |
| 2026-05-07 02:24 | 32.36348 | 38.34597 | 41053 ft | 464 kts | 162° |
| 2026-05-07 02:24 | 32.30616 | 38.37965 | 41023 ft | 464 kts | 162° |
| 2026-05-07 02:25 | 32.24840 | 38.41357 | 41048 ft | 462 kts | 162° |
| 2026-05-07 02:25 | 32.19121 | 38.44707 | 41052 ft | 462 kts | 163° |
| 2026-05-07 02:26 | 32.13353 | 38.48082 | 41052 ft | 462 kts | 163° |
| 2026-05-07 02:26 | 32.07584 | 38.51454 | 41051 ft | 462 kts | 163° |
| 2026-05-07 02:27 | 32.01822 | 38.54819 | 41040 ft | 462 kts | 163° |
| 2026-05-07 02:27 | 31.96071 | 38.58175 | 41049 ft | 461 kts | 163° |
| 2026-05-07 02:28 | 31.90311 | 38.61527 | 41049 ft | 461 kts | 163° |
| 2026-05-07 02:28 | 31.84558 | 38.64872 | 41048 ft | 461 kts | 163° |
| 2026-05-07 02:29 | 31.78811 | 38.68225 | 41036 ft | 462 kts | 161° |
| 2026-05-07 02:29 | 31.73420 | 38.72552 | 41043 ft | 479 kts | 147° |
| 2026-05-07 02:30 | 31.68875 | 38.78467 | 41047 ft | 497 kts | 133° |
| 2026-05-07 02:30 | 31.65578 | 38.85747 | 41043 ft | 513 kts | 119° |
| 2026-05-07 02:31 | 31.63086 | 38.93628 | 41040 ft | 514 kts | 117° |
| 2026-05-07 02:31 | 31.60632 | 39.01509 | 41044 ft | 513 kts | 117° |
| 2026-05-07 02:32 | 31.58139 | 39.09347 | 41044 ft | 513 kts | 118° |
| 2026-05-07 02:32 | 31.55621 | 39.17191 | 41034 ft | 513 kts | 118° |
| 2026-05-07 02:33 | 31.53099 | 39.25012 | 41043 ft | 513 kts | 118° |
| 2026-05-07 02:33 | 31.50586 | 39.32789 | 41047 ft | 512 kts | 118° |
| 2026-05-07 02:34 | 31.48059 | 39.40600 | 41032 ft | 512 kts | 118° |
| 2026-05-07 02:34 | 31.45524 | 39.48417 | 41042 ft | 512 kts | 118° |
| 2026-05-07 02:35 | 31.42994 | 39.56191 | 41047 ft | 512 kts | 118° |
| 2026-05-07 02:35 | 31.40461 | 39.64007 | 41044 ft | 512 kts | 118° |
| 2026-05-07 02:36 | 31.37936 | 39.71805 | 41032 ft | 512 kts | 118° |
| 2026-05-07 02:36 | 31.35403 | 39.79614 | 41045 ft | 512 kts | 118° |
| 2026-05-07 02:37 | 31.32868 | 39.87411 | 41037 ft | 512 kts | 118° |
| 2026-05-07 02:37 | 31.30330 | 39.95197 | 41047 ft | 512 kts | 118° |
| 2026-05-07 02:38 | 31.27790 | 40.02972 | 41046 ft | 512 kts | 118° |
| 2026-05-07 02:38 | 31.25239 | 40.10759 | 41037 ft | 512 kts | 118° |
| 2026-05-07 02:39 | 31.22686 | 40.18534 | 41040 ft | 512 kts | 118° |
| 2026-05-07 02:39 | 31.20129 | 40.26304 | 41025 ft | 512 kts | 118° |
| 2026-05-07 02:40 | 31.17565 | 40.34074 | 41040 ft | 512 kts | 118° |
| 2026-05-07 02:40 | 31.14998 | 40.41841 | 41039 ft | 512 kts | 119° |
| 2026-05-07 02:41 | 31.12426 | 40.49601 | 41028 ft | 512 kts | 119° |
| 2026-05-07 02:41 | 31.10286 | 40.56045 | 41038 ft | 512 kts | 119° |
| 2026-05-07 02:42 | 31.07707 | 40.63797 | 41040 ft | 512 kts | 119° |
| 2026-05-07 02:42 | 31.05127 | 40.71535 | 41040 ft | 512 kts | 119° |
| 2026-05-07 02:43 | 31.02537 | 40.79282 | 41038 ft | 511 kts | 119° |
| 2026-05-07 02:43 | 30.99949 | 40.87013 | 41038 ft | 511 kts | 119° |
| 2026-05-07 02:44 | 30.97355 | 40.94747 | 41030 ft | 511 kts | 119° |
| 2026-05-07 02:44 | 30.94760 | 41.02459 | 41036 ft | 511 kts | 119° |
| 2026-05-07 02:45 | 30.91816 | 41.09937 | 41045 ft | 503 kts | 127° |
| 2026-05-07 02:45 | 30.88199 | 41.16840 | 41038 ft | 494 kts | 134° |
| 2026-05-07 02:46 | 30.83995 | 41.23087 | 41044 ft | 485 kts | 141° |
| 2026-05-07 02:46 | 30.79480 | 41.28928 | 41030 ft | 485 kts | 141° |
| 2026-05-07 02:47 | 30.74965 | 41.34760 | 41027 ft | 485 kts | 141° |
| 2026-05-07 02:47 | 30.70451 | 41.40605 | 41021 ft | 485 kts | 141° |
| 2026-05-07 02:48 | 30.65972 | 41.46403 | 41021 ft | 485 kts | 141° |
| 2026-05-07 02:48 | 30.61464 | 41.52234 | 41016 ft | 485 kts | 141° |
| 2026-05-07 02:49 | 30.56919 | 41.58102 | 40997 ft | 485 kts | 141° |
| 2026-05-07 02:49 | 30.52444 | 41.63874 | 41016 ft | 484 kts | 141° |
| 2026-05-07 02:50 | 30.47934 | 41.69680 | 41007 ft | 484 kts | 141° |
| 2026-05-07 02:50 | 30.43416 | 41.75489 | 41018 ft | 484 kts | 141° |
| 2026-05-07 02:51 | 30.38903 | 41.81285 | 41007 ft | 483 kts | 141° |
| 2026-05-07 02:51 | 30.34394 | 41.87064 | 40995 ft | 484 kts | 141° |
| 2026-05-07 02:52 | 30.29872 | 41.92853 | 41013 ft | 484 kts | 141° |
| 2026-05-07 02:52 | 30.25356 | 41.98628 | 41012 ft | 484 kts | 141° |
| 2026-05-07 02:53 | 30.20842 | 42.04397 | 41010 ft | 483 kts | 142° |
| 2026-05-07 02:53 | 30.16332 | 42.10144 | 41015 ft | 483 kts | 142° |
| 2026-05-07 02:54 | 30.12012 | 42.16166 | 41014 ft | 491 kts | 135° |
| 2026-05-07 02:54 | 30.08225 | 42.22824 | 41017 ft | 500 kts | 129° |
| 2026-05-07 02:55 | 30.05071 | 42.30066 | 41013 ft | 509 kts | 121° |
| 2026-05-07 02:55 | 30.02383 | 42.37648 | 41008 ft | 510 kts | 120° |
| 2026-05-07 02:56 | 29.99718 | 42.45239 | 40997 ft | 510 kts | 121° |
| 2026-05-07 02:56 | 29.97047 | 42.52773 | 41006 ft | 510 kts | 121° |
| 2026-05-07 02:57 | 29.94342 | 42.60363 | 41009 ft | 510 kts | 121° |
| 2026-05-07 02:57 | 29.91635 | 42.67936 | 41000 ft | 511 kts | 121° |
| 2026-05-07 02:58 | 29.88915 | 42.75527 | 41004 ft | 511 kts | 121° |
| 2026-05-07 02:58 | 29.86193 | 42.83107 | 41002 ft | 511 kts | 121° |
| 2026-05-07 02:59 | 29.83465 | 42.90686 | 41003 ft | 511 kts | 121° |
| 2026-05-07 02:59 | 29.80737 | 42.98253 | 41002 ft | 511 kts | 121° |
| 2026-05-07 03:00 | 29.78004 | 43.05820 | 40992 ft | 512 kts | 121° |
| 2026-05-07 03:00 | 29.75260 | 43.13400 | 41002 ft | 512 kts | 121° |
| 2026-05-07 03:01 | 29.72512 | 43.20973 | 40999 ft | 512 kts | 121° |
| 2026-05-07 03:01 | 29.69764 | 43.28537 | 40990 ft | 512 kts | 121° |
| 2026-05-07 03:02 | 29.67013 | 43.36097 | 40992 ft | 512 kts | 121° |
| 2026-05-07 03:02 | 29.64254 | 43.43649 | 40974 ft | 511 kts | 122° |
| 2026-05-07 03:03 | 29.61111 | 43.50913 | 40989 ft | 502 kts | 129° |
| 2026-05-07 03:03 | 29.57354 | 43.57594 | 40992 ft | 495 kts | 134° |
| 2026-05-07 03:04 | 29.53412 | 43.64091 | 40976 ft | 495 kts | 134° |
| 2026-05-07 03:04 | 29.49476 | 43.70586 | 40995 ft | 495 kts | 134° |
| 2026-05-07 03:05 | 29.45573 | 43.77040 | 40999 ft | 495 kts | 134° |
| 2026-05-07 03:05 | 29.41642 | 43.83539 | 40988 ft | 495 kts | 134° |
| 2026-05-07 03:06 | 29.37711 | 43.90031 | 40997 ft | 495 kts | 134° |
| 2026-05-07 03:06 | 29.33776 | 43.96518 | 41004 ft | 495 kts | 134° |
| 2026-05-07 03:07 | 29.29845 | 44.02987 | 40984 ft | 495 kts | 134° |
| 2026-05-07 03:07 | 29.25904 | 44.09466 | 41002 ft | 495 kts | 135° |
| 2026-05-07 03:08 | 29.21963 | 44.15932 | 40988 ft | 495 kts | 135° |
| 2026-05-07 03:08 | 29.18017 | 44.22397 | 40995 ft | 494 kts | 135° |
| 2026-05-07 03:09 | 29.14071 | 44.28855 | 40996 ft | 495 kts | 135° |
| 2026-05-07 03:09 | 29.10119 | 44.35309 | 41000 ft | 495 kts | 135° |
| 2026-05-07 03:10 | 29.06166 | 44.41756 | 40999 ft | 495 kts | 135° |
| 2026-05-07 03:10 | 29.02204 | 44.48210 | 40996 ft | 495 kts | 135° |
| 2026-05-07 03:11 | 28.98287 | 44.54583 | 40999 ft | 495 kts | 135° |
| 2026-05-07 03:11 | 28.94345 | 44.60990 | 41000 ft | 495 kts | 135° |
| 2026-05-07 03:12 | 28.90376 | 44.67428 | 40994 ft | 496 kts | 135° |
| 2026-05-07 03:12 | 28.86608 | 44.74095 | 40993 ft | 504 kts | 129° |
| 2026-05-07 03:13 | 28.83481 | 44.81278 | 40991 ft | 514 kts | 121° |
| 2026-05-07 03:13 | 28.80762 | 44.88838 | 40992 ft | 514 kts | 121° |
| 2026-05-07 03:14 | 28.78055 | 44.96415 | 40992 ft | 514 kts | 121° |
| 2026-05-07 03:15 | 28.74005 | 45.07634 | 40991 ft | 515 kts | 121° |
| 2026-05-07 03:15 | 28.71267 | 45.15177 | 40973 ft | 515 kts | 121° |
| 2026-05-07 03:16 | 28.68518 | 45.22729 | 40984 ft | 516 kts | 121° |
| 2026-05-07 03:16 | 28.65759 | 45.30295 | 41001 ft | 517 kts | 121° |
| 2026-05-07 03:17 | 28.62995 | 45.37859 | 40991 ft | 517 kts | 121° |
| 2026-05-07 03:17 | 28.60226 | 45.45421 | 40981 ft | 517 kts | 121° |
| 2026-05-07 03:18 | 28.57452 | 45.52983 | 40979 ft | 518 kts | 121° |
| 2026-05-07 03:18 | 28.54678 | 45.60530 | 40982 ft | 518 kts | 121° |
| 2026-05-07 03:19 | 28.51890 | 45.68098 | 40969 ft | 518 kts | 121° |
| 2026-05-07 03:19 | 28.49098 | 45.75664 | 40978 ft | 518 kts | 121° |
| 2026-05-07 03:20 | 28.46308 | 45.83212 | 40973 ft | 518 kts | 121° |
| 2026-05-07 03:20 | 28.43508 | 45.90770 | 40976 ft | 518 kts | 121° |
| 2026-05-07 03:21 | 28.40734 | 45.98252 | 40954 ft | 517 kts | 121° |
| 2026-05-07 03:21 | 28.37944 | 46.05754 | 40963 ft | 517 kts | 122° |
| 2026-05-07 03:22 | 28.34916 | 46.13127 | 40964 ft | 510 kts | 128° |
| 2026-05-07 03:22 | 28.31337 | 46.20030 | 40940 ft | 506 kts | 131° |
| 2026-05-07 03:23 | 28.27674 | 46.26845 | 40961 ft | 505 kts | 131° |
| 2026-05-07 03:23 | 28.24022 | 46.33660 | 40969 ft | 505 kts | 131° |
| 2026-05-07 03:24 | 28.20377 | 46.40473 | 40968 ft | 505 kts | 131° |
| 2026-05-07 03:24 | 28.16723 | 46.47299 | 40970 ft | 506 kts | 131° |
| 2026-05-07 03:25 | 28.13067 | 46.54119 | 40971 ft | 506 kts | 131° |
| 2026-05-07 03:25 | 28.09411 | 46.60928 | 40965 ft | 506 kts | 131° |
| 2026-05-07 03:26 | 28.05752 | 46.67731 | 40958 ft | 505 kts | 131° |
| 2026-05-07 03:26 | 28.02096 | 46.74522 | 40963 ft | 504 kts | 131° |
| 2026-05-07 03:27 | 27.98436 | 46.81306 | 40960 ft | 504 kts | 131° |
| 2026-05-07 03:27 | 27.94773 | 46.88086 | 40963 ft | 504 kts | 131° |
| 2026-05-07 03:28 | 27.91141 | 46.94801 | 40960 ft | 503 kts | 131° |
| 2026-05-07 03:28 | 27.87459 | 47.01602 | 40966 ft | 503 kts | 131° |
| 2026-05-07 03:29 | 27.83803 | 47.08341 | 40959 ft | 503 kts | 130° |
| 2026-05-07 03:29 | 27.80222 | 47.15157 | 40945 ft | 504 kts | 130° |
| 2026-05-07 03:30 | 27.77268 | 47.20839 | 40953 ft | 504 kts | 130° |
| 2026-05-07 03:30 | 27.73711 | 47.27656 | 40958 ft | 504 kts | 130° |
| 2026-05-07 03:31 | 27.70146 | 47.34466 | 40958 ft | 504 kts | 130° |
| 2026-05-07 03:31 | 27.66593 | 47.41239 | 40946 ft | 503 kts | 130° |
| 2026-05-07 03:32 | 27.63024 | 47.48034 | 40948 ft | 503 kts | 130° |
| 2026-05-07 03:32 | 27.59439 | 47.54853 | 40951 ft | 503 kts | 130° |
| 2026-05-07 03:33 | 27.55866 | 47.61634 | 40927 ft | 503 kts | 130° |
| 2026-05-07 03:33 | 27.52295 | 47.68385 | 40943 ft | 500 kts | 130° |
| 2026-05-07 03:34 | 27.48719 | 47.75113 | 40939 ft | 500 kts | 130° |
| 2026-05-07 03:34 | 27.45141 | 47.81843 | 40944 ft | 500 kts | 130° |
| 2026-05-07 03:35 | 27.41576 | 47.88547 | 40938 ft | 500 kts | 130° |
| 2026-05-07 03:35 | 27.38009 | 47.95248 | 40943 ft | 499 kts | 130° |
| 2026-05-07 03:36 | 27.34478 | 48.01971 | 40944 ft | 500 kts | 128° |
| 2026-05-07 03:36 | 27.31357 | 48.09031 | 40942 ft | 509 kts | 121° |
| 2026-05-07 03:37 | 27.28934 | 48.16579 | 40923 ft | 518 kts | 115° |
| 2026-05-07 03:37 | 27.26679 | 48.24223 | 40939 ft | 511 kts | 120° |
| 2026-05-07 03:38 | 27.23964 | 48.31537 | 40937 ft | 510 kts | 121° |
| 2026-05-07 03:38 | 27.21233 | 48.38899 | 40934 ft | 511 kts | 121° |
| 2026-05-07 03:39 | 27.18541 | 48.46298 | 40911 ft | 512 kts | 120° |
| 2026-05-07 03:39 | 27.15849 | 48.53740 | 40922 ft | 514 kts | 120° |
| 2026-05-07 03:40 | 27.13157 | 48.61191 | 40917 ft | 514 kts | 120° |
| 2026-05-07 03:40 | 27.10460 | 48.68633 | 40910 ft | 515 kts | 120° |
| 2026-05-07 03:41 | 27.07756 | 48.76084 | 40891 ft | 515 kts | 120° |
| 2026-05-07 03:41 | 27.05049 | 48.83521 | 40898 ft | 515 kts | 120° |
| 2026-05-07 03:42 | 27.02329 | 48.90928 | 40903 ft | 514 kts | 120° |
| 2026-05-07 03:42 | 26.99576 | 48.98336 | 40899 ft | 514 kts | 120° |
| 2026-05-07 03:43 | 26.96830 | 49.05726 | 40893 ft | 514 kts | 120° |
| 2026-05-07 03:43 | 26.94071 | 49.13143 | 40889 ft | 515 kts | 120° |
| 2026-05-07 03:44 | 26.91315 | 49.20549 | 40883 ft | 515 kts | 120° |
| 2026-05-07 03:44 | 26.88556 | 49.27954 | 40879 ft | 515 kts | 120° |
| 2026-05-07 03:45 | 26.85791 | 49.35360 | 40876 ft | 515 kts | 120° |
| 2026-05-07 03:45 | 26.83037 | 49.42707 | 40862 ft | 514 kts | 120° |
| 2026-05-07 03:46 | 26.80265 | 49.50091 | 40868 ft | 513 kts | 120° |
| 2026-05-07 03:46 | 26.77504 | 49.57437 | 40864 ft | 513 kts | 120° |
| 2026-05-07 03:47 | 26.74733 | 49.64804 | 40857 ft | 513 kts | 120° |
| 2026-05-07 03:47 | 26.71953 | 49.72166 | 40837 ft | 513 kts | 120° |
| 2026-05-07 03:48 | 26.69175 | 49.79511 | 40838 ft | 512 kts | 120° |
| 2026-05-07 03:48 | 26.66404 | 49.86846 | 40838 ft | 512 kts | 120° |
| 2026-05-07 03:49 | 26.63636 | 49.94145 | 40843 ft | 511 kts | 120° |
| 2026-05-07 03:49 | 26.60854 | 50.01461 | 40847 ft | 512 kts | 120° |
| 2026-05-07 03:50 | 26.58059 | 50.08786 | 40836 ft | 511 kts | 120° |
| 2026-05-07 03:50 | 26.55271 | 50.16088 | 40844 ft | 510 kts | 120° |
| 2026-05-07 03:51 | 26.52530 | 50.23264 | 40838 ft | 510 kts | 120° |
| 2026-05-07 03:51 | 26.49741 | 50.30561 | 40838 ft | 510 kts | 120° |
| 2026-05-07 03:52 | 26.46954 | 50.37829 | 40825 ft | 510 kts | 119° |
| 2026-05-07 03:52 | 26.44159 | 50.45090 | 40856 ft | 508 kts | 119° |
| 2026-05-07 03:53 | 26.41387 | 50.52299 | 40853 ft | 508 kts | 119° |
| 2026-05-07 03:53 | 26.38595 | 50.59542 | 40860 ft | 508 kts | 119° |
| 2026-05-07 03:54 | 26.35781 | 50.66826 | 40858 ft | 508 kts | 119° |
| 2026-05-07 03:54 | 26.32978 | 50.74062 | 40846 ft | 507 kts | 119° |
| 2026-05-07 03:55 | 26.30186 | 50.81260 | 40856 ft | 506 kts | 119° |
| 2026-05-07 03:55 | 26.27408 | 50.88419 | 40845 ft | 506 kts | 119° |
| 2026-05-07 03:56 | 26.24611 | 50.95607 | 40851 ft | 506 kts | 119° |
| 2026-05-07 03:56 | 26.21812 | 51.02790 | 40852 ft | 505 kts | 119° |
| 2026-05-07 03:57 | 26.19021 | 51.09983 | 40847 ft | 504 kts | 119° |
| 2026-05-07 03:57 | 26.16261 | 51.17159 | 40846 ft | 504 kts | 119° |
| 2026-05-07 03:58 | 26.13496 | 51.24341 | 40844 ft | 504 kts | 119° |
| 2026-05-07 03:58 | 26.10736 | 51.31495 | 40844 ft | 504 kts | 119° |
| 2026-05-07 03:59 | 26.07939 | 51.38655 | 40822 ft | 503 kts | 121° |
| 2026-05-07 03:59 | 26.04716 | 51.45487 | 40840 ft | 498 kts | 125° |
| 2026-05-07 04:00 | 26.01298 | 51.52196 | 40838 ft | 498 kts | 125° |
| 2026-05-07 04:00 | 25.97890 | 51.58887 | 40839 ft | 498 kts | 125° |
| 2026-05-07 04:01 | 25.94469 | 51.65615 | 40839 ft | 499 kts | 125° |
| 2026-05-07 04:01 | 25.91053 | 51.72323 | 40832 ft | 498 kts | 125° |
| 2026-05-07 04:02 | 25.87741 | 51.79023 | 40833 ft | 498 kts | 124° |
| 2026-05-07 04:02 | 25.84446 | 51.85804 | 40833 ft | 499 kts | 123° |
| 2026-05-07 04:03 | 25.81401 | 51.92758 | 40837 ft | 502 kts | 120° |
| 2026-05-07 04:03 | 25.78456 | 51.99786 | 40829 ft | 501 kts | 120° |
| 2026-05-07 04:04 | 25.75517 | 52.06787 | 40832 ft | 500 kts | 120° |
| 2026-05-07 04:04 | 25.72571 | 52.13782 | 40849 ft | 500 kts | 120° |
| 2026-05-07 04:05 | 25.69623 | 52.20765 | 40849 ft | 500 kts | 120° |
| 2026-05-07 04:05 | 25.66671 | 52.27750 | 40836 ft | 500 kts | 120° |
| 2026-05-07 04:06 | 25.63709 | 52.34746 | 40835 ft | 500 kts | 120° |
| 2026-05-07 04:06 | 25.60601 | 52.41633 | 40847 ft | 498 kts | 124° |
| 2026-05-07 04:07 | 25.57223 | 52.48326 | 40849 ft | 497 kts | 124° |
| 2026-05-07 04:07 | 25.53834 | 52.55008 | 40821 ft | 496 kts | 124° |
| 2026-05-07 04:07 | 25.52154 | 52.58330 | 40517 ft | 494 kts | 124° |
| 2026-05-07 04:08 | 25.50460 | 52.61675 | 39638 ft | 502 kts | 124° |
| 2026-05-07 04:08 | 25.48732 | 52.65082 | 38672 ft | 512 kts | 124° |
| 2026-05-07 04:08 | 25.46976 | 52.68547 | 37798 ft | 517 kts | 124° |
| 2026-05-07 04:08 | 25.45218 | 52.72018 | 37051 ft | 518 kts | 124° |
| 2026-05-07 04:09 | 25.43405 | 52.75468 | 36353 ft | 518 kts | 126° |
| 2026-05-07 04:09 | 25.41527 | 52.78882 | 35650 ft | 518 kts | 126° |
| 2026-05-07 04:09 | 25.39629 | 52.82277 | 34967 ft | 519 kts | 126° |
| 2026-05-07 04:09 | 25.37745 | 52.85628 | 34281 ft | 521 kts | 126° |
| 2026-05-07 04:10 | 25.35804 | 52.89090 | 33545 ft | 522 kts | 126° |
| 2026-05-07 04:10 | 25.33895 | 52.92506 | 32764 ft | 523 kts | 126° |
| 2026-05-07 04:10 | 25.32048 | 52.95989 | 32011 ft | 525 kts | 122° |
| 2026-05-07 04:10 | 25.30380 | 52.99583 | 31326 ft | 526 kts | 119° |
| 2026-05-07 04:11 | 25.28848 | 53.03264 | 30626 ft | 526 kts | 117° |
| 2026-05-07 04:11 | 25.27350 | 53.06949 | 29901 ft | 525 kts | 117° |
| 2026-05-07 04:11 | 25.25877 | 53.10588 | 29030 ft | 525 kts | 117° |
| 2026-05-07 04:11 | 25.24379 | 53.14275 | 28172 ft | 525 kts | 117° |
| 2026-05-07 04:12 | 25.22881 | 53.17947 | 27430 ft | 522 kts | 116° |
| 2026-05-07 04:12 | 25.21388 | 53.21593 | 26806 ft | 516 kts | 116° |
| 2026-05-07 04:12 | 25.19916 | 53.25182 | 26385 ft | 507 kts | 116° |
| 2026-05-07 04:12 | 25.18364 | 53.28625 | 26032 ft | 497 kts | 121° |
| 2026-05-07 04:13 | 25.16556 | 53.31853 | 25669 ft | 491 kts | 126° |
| 2026-05-07 04:13 | 25.14513 | 53.34852 | 25326 ft | 486 kts | 131° |
| 2026-05-07 04:13 | 25.12377 | 53.37727 | 24984 ft | 483 kts | 131° |
| 2026-05-07 04:13 | 25.10225 | 53.40573 | 24652 ft | 480 kts | 132° |
| 2026-05-07 04:14 | 25.08085 | 53.43398 | 24305 ft | 478 kts | 131° |
| 2026-05-07 04:14 | 25.05967 | 53.46207 | 23972 ft | 475 kts | 131° |
| 2026-05-07 04:14 | 25.03861 | 53.49010 | 23643 ft | 473 kts | 131° |
| 2026-05-07 04:14 | 25.01767 | 53.51802 | 23271 ft | 470 kts | 131° |
| 2026-05-07 04:15 | 24.99692 | 53.54569 | 22875 ft | 466 kts | 131° |
| 2026-05-07 04:15 | 24.97706 | 53.57364 | 22365 ft | 461 kts | 128° |
| 2026-05-07 04:15 | 24.95891 | 53.60272 | 21732 ft | 457 kts | 124° |
| 2026-05-07 04:15 | 24.94246 | 53.63253 | 21185 ft | 452 kts | 122° |
| 2026-05-07 04:16 | 24.92655 | 53.66218 | 20656 ft | 446 kts | 121° |
| 2026-05-07 04:16 | 24.91090 | 53.69148 | 20123 ft | 441 kts | 121° |
| 2026-05-07 04:16 | 24.89540 | 53.72044 | 19617 ft | 435 kts | 121° |
| 2026-05-07 04:16 | 24.88007 | 53.74903 | 19115 ft | 430 kts | 121° |
| 2026-05-07 04:17 | 24.86512 | 53.77686 | 18572 ft | 426 kts | 121° |
| 2026-05-07 04:17 | 24.85005 | 53.80486 | 18035 ft | 422 kts | 121° |
| 2026-05-07 04:17 | 24.83495 | 53.83286 | 17543 ft | 415 kts | 121° |
| 2026-05-07 04:17 | 24.82051 | 53.85958 | 17099 ft | 407 kts | 121° |
| 2026-05-07 04:18 | 24.81078 | 53.87760 | 16800 ft | 402 kts | 120° |
| 2026-05-07 04:18 | 24.79664 | 53.90383 | 16322 ft | 395 kts | 120° |
| 2026-05-07 04:18 | 24.77839 | 53.93762 | 15674 ft | 381 kts | 120° |
| 2026-05-07 04:18 | 24.76506 | 53.96228 | 15306 ft | 368 kts | 120° |
| 2026-05-07 04:19 | 24.75224 | 53.98600 | 15055 ft | 353 kts | 119° |
| 2026-05-07 04:19 | 24.74063 | 54.00917 | 14870 ft | 338 kts | 115° |
| 2026-05-07 04:19 | 24.73031 | 54.03169 | 14911 ft | 321 kts | 115° |
| 2026-05-07 04:19 | 24.72370 | 54.04627 | 14920 ft | 310 kts | 115° |
| 2026-05-07 04:20 | 24.71110 | 54.07409 | 14717 ft | 304 kts | 115° |
| 2026-05-07 04:20 | 24.70474 | 54.08811 | 14573 ft | 302 kts | 115° |
| 2026-05-07 04:20 | 24.69236 | 54.11537 | 14253 ft | 299 kts | 114° |
| 2026-05-07 04:21 | 24.67683 | 54.14952 | 13850 ft | 296 kts | 114° |
| 2026-05-07 04:21 | 24.66761 | 54.16974 | 13593 ft | 294 kts | 114° |
| 2026-05-07 04:21 | 24.65846 | 54.18986 | 13309 ft | 294 kts | 114° |
| 2026-05-07 04:21 | 24.64929 | 54.21003 | 13032 ft | 294 kts | 114° |
| 2026-05-07 04:22 | 24.64013 | 54.23014 | 12753 ft | 294 kts | 114° |
| 2026-05-07 04:22 | 24.63110 | 54.24994 | 12490 ft | 294 kts | 114° |
| 2026-05-07 04:22 | 24.62194 | 54.27000 | 12212 ft | 294 kts | 114° |
| 2026-05-07 04:22 | 24.61276 | 54.29009 | 11943 ft | 294 kts | 114° |
| 2026-05-07 04:23 | 24.60358 | 54.31019 | 11671 ft | 293 kts | 113° |
| 2026-05-07 04:23 | 24.59547 | 54.33073 | 11406 ft | 292 kts | 108° |
| 2026-05-07 04:23 | 24.58944 | 54.35202 | 11146 ft | 290 kts | 102° |
| 2026-05-07 04:23 | 24.58488 | 54.37363 | 10893 ft | 290 kts | 100° |
| 2026-05-07 04:24 | 24.58050 | 54.39543 | 10622 ft | 290 kts | 100° |
| 2026-05-07 04:24 | 24.57616 | 54.41709 | 10363 ft | 290 kts | 100° |
| 2026-05-07 04:24 | 24.57180 | 54.43870 | 10110 ft | 290 kts | 100° |
| 2026-05-07 04:24 | 24.56741 | 54.46034 | 9863 ft | 289 kts | 100° |
| 2026-05-07 04:25 | 24.56305 | 54.48195 | 9601 ft | 289 kts | 100° |
| 2026-05-07 04:25 | 24.55872 | 54.50356 | 9325 ft | 289 kts | 100° |
| 2026-05-07 04:25 | 24.55443 | 54.52507 | 9056 ft | 287 kts | 101° |
| 2026-05-07 04:25 | 24.55015 | 54.54638 | 8751 ft | 284 kts | 101° |
| 2026-05-07 04:26 | 24.54587 | 54.56768 | 8311 ft | 286 kts | 101° |
| 2026-05-07 04:26 | 24.54158 | 54.58910 | 7920 ft | 287 kts | 101° |
| 2026-05-07 04:26 | 24.53728 | 54.61045 | 7553 ft | 287 kts | 102° |
| 2026-05-07 04:26 | 24.53297 | 54.63184 | 7201 ft | 286 kts | 102° |
| 2026-05-07 04:27 | 24.52867 | 54.65314 | 6857 ft | 285 kts | 102° |
| 2026-05-07 04:27 | 24.52436 | 54.67442 | 6505 ft | 285 kts | 102° |
| 2026-05-07 04:27 | 24.52007 | 54.69564 | 6143 ft | 284 kts | 103° |
| 2026-05-07 04:27 | 24.51363 | 54.71615 | 5772 ft | 284 kts | 117° |
| 2026-05-07 04:28 | 24.50321 | 54.73442 | 5438 ft | 281 kts | 127° |
| 2026-05-07 04:28 | 24.49128 | 54.75137 | 5123 ft | 279 kts | 129° |
| 2026-05-07 04:28 | 24.47952 | 54.76829 | 4999 ft | 277 kts | 127° |
| 2026-05-07 04:28 | 24.46845 | 54.78491 | 4988 ft | 263 kts | 127° |
| 2026-05-07 04:29 | 24.45800 | 54.80077 | 4982 ft | 249 kts | 127° |
| 2026-05-07 04:29 | 24.44816 | 54.81577 | 4979 ft | 236 kts | 127° |
| 2026-05-07 04:29 | 24.43861 | 54.83037 | 4988 ft | 235 kts | 127° |
| 2026-05-07 04:29 | 24.42907 | 54.84495 | 4991 ft | 235 kts | 127° |
| 2026-05-07 04:30 | 24.41953 | 54.85953 | 4994 ft | 235 kts | 127° |
| 2026-05-07 04:30 | 24.41011 | 54.87392 | 4997 ft | 235 kts | 127° |
| 2026-05-07 04:30 | 24.40043 | 54.88871 | 4997 ft | 235 kts | 127° |
| 2026-05-07 04:30 | 24.39099 | 54.90313 | 5000 ft | 235 kts | 127° |
| 2026-05-07 04:31 | 24.38143 | 54.91772 | 5001 ft | 235 kts | 127° |
| 2026-05-07 04:31 | 24.37187 | 54.93228 | 5021 ft | 235 kts | 127° |
| 2026-05-07 04:31 | 24.36230 | 54.94689 | 5049 ft | 236 kts | 127° |
| 2026-05-07 04:31 | 24.35299 | 54.96127 | 5024 ft | 227 kts | 127° |
| 2026-05-07 04:32 | 24.34391 | 54.97534 | 5012 ft | 226 kts | 127° |
| 2026-05-07 04:32 | 24.33486 | 54.98942 | 5012 ft | 226 kts | 127° |
| 2026-05-07 04:32 | 24.32582 | 55.00348 | 5012 ft | 225 kts | 127° |
| 2026-05-07 04:32 | 24.31678 | 55.01756 | 5010 ft | 226 kts | 127° |
| 2026-05-07 04:33 | 24.30650 | 55.03038 | 4997 ft | 223 kts | 147° |
| 2026-05-07 04:33 | 24.29211 | 55.03535 | 5002 ft | 218 kts | 182° |
| 2026-05-07 04:33 | 24.27778 | 55.03105 | 4894 ft | 212 kts | 206° |
| 2026-05-07 04:33 | 24.26518 | 55.02312 | 4655 ft | 206 kts | 215° |
| 2026-05-07 04:34 | 24.25398 | 55.01362 | 4409 ft | 201 kts | 219° |
| 2026-05-07 04:34 | 24.24324 | 55.00398 | 4160 ft | 198 kts | 219° |
| 2026-05-07 04:34 | 24.23318 | 54.99378 | 3920 ft | 197 kts | 234° |
| 2026-05-07 04:34 | 24.22918 | 54.97952 | 3680 ft | 201 kts | 265° |
| 2026-05-07 04:35 | 24.23258 | 54.96459 | 3443 ft | 208 kts | 295° |
| 2026-05-07 04:35 | 24.24118 | 54.95165 | 3230 ft | 211 kts | 304° |
| 2026-05-07 04:35 | 24.25075 | 54.93944 | 3031 ft | 211 kts | 307° |
| 2026-05-07 04:35 | 24.26037 | 54.92730 | 3005 ft | 206 kts | 305° |
| 2026-05-07 04:36 | 24.26947 | 54.91543 | 2996 ft | 202 kts | 304° |
| 2026-05-07 04:36 | 24.27830 | 54.90349 | 2949 ft | 202 kts | 303° |
| 2026-05-07 04:36 | 24.28703 | 54.89134 | 2664 ft | 202 kts | 302° |
| 2026-05-07 04:36 | 24.29565 | 54.87921 | 2403 ft | 200 kts | 302° |
| 2026-05-07 04:37 | 24.30416 | 54.86709 | 2113 ft | 200 kts | 302° |
| 2026-05-07 04:37 | 24.31265 | 54.85490 | 2010 ft | 200 kts | 302° |
| 2026-05-07 04:37 | 24.32111 | 54.84271 | 1994 ft | 201 kts | 302° |
| 2026-05-07 04:37 | 24.32956 | 54.83060 | 1992 ft | 196 kts | 302° |
| 2026-05-07 04:38 | 24.33764 | 54.81912 | 1983 ft | 186 kts | 302° |
| 2026-05-07 04:38 | 24.34541 | 54.80801 | 1981 ft | 182 kts | 301° |
| 2026-05-07 04:38 | 24.35302 | 54.79712 | 1992 ft | 182 kts | 301° |
| 2026-05-07 04:38 | 24.36086 | 54.78592 | 1989 ft | 182 kts | 301° |
| 2026-05-07 04:39 | 24.36861 | 54.77490 | 1989 ft | 182 kts | 301° |
| 2026-05-07 04:39 | 24.37626 | 54.76402 | 2002 ft | 182 kts | 301° |
| 2026-05-07 04:39 | 24.38405 | 54.75295 | 1858 ft | 183 kts | 301° |
| 2026-05-07 04:39 | 24.39182 | 54.74199 | 1639 ft | 181 kts | 303° |
| 2026-05-07 04:40 | 24.39958 | 54.73108 | 1400 ft | 180 kts | 304° |
| 2026-05-07 04:40 | 24.40725 | 54.72024 | 1175 ft | 179 kts | 305° |
| 2026-05-07 04:40 | 24.41482 | 54.70947 | 958 ft | 177 kts | 306° |
| 2026-05-07 04:40 | 24.42232 | 54.69877 | 721 ft | 170 kts | 307° |
| 2026-05-07 04:41 | 24.42923 | 54.68894 | 506 ft | 162 kts | 308° |
| 2026-05-07 04:41 | 24.43607 | 54.67917 | 326 ft | 162 kts | 308° |
| 2026-05-07 04:41 | 24.44293 | 54.66938 | 142 ft | 161 kts | 309° |
| 2026-05-07 04:41 | 24.44970 | 54.65981 | 87 ft | 150 kts | 307° |
| 2026-05-07 04:42 | 24.45501 | 54.65233 | 87 ft | 96 kts | 308° |
| 2026-05-07 04:42 | 24.45805 | 54.64798 | 84 ft | 46 kts | 307° |
| 2026-05-07 04:42 | 24.45959 | 54.64588 | 85 ft | 34 kts | 309° |
| 2026-05-07 04:42 | 24.46029 | 54.64477 | 84 ft | 12 kts | 289° |
| 2026-05-07 04:43 | 24.46015 | 54.64384 | 87 ft | 13 kts | 230° |
| 2026-05-07 04:43 | 24.45961 | 54.64331 | 86 ft | 10 kts | 219° |
| 2026-05-07 04:43 | 24.45899 | 54.64278 | 86 ft | 13 kts | 217° |
| 2026-05-07 04:43 | 24.45829 | 54.64220 | 86 ft | 9 kts | 216° |
| 2026-05-07 04:44 | 24.45766 | 54.64216 | 84 ft | 11 kts | 154° |
| 2026-05-07 04:44 | 24.45702 | 54.64272 | 85 ft | 13 kts | 145° |
| 2026-05-07 04:44 | 24.45639 | 54.64308 | 86 ft | 10 kts | 168° |
| 2026-05-07 04:44 | 24.45563 | 54.64328 | 86 ft | 13 kts | 165° |
| 2026-05-07 04:45 | 24.45503 | 54.64346 | 87 ft | 5 kts | 165° |
| 2026-05-07 04:45 | 24.45467 | 54.64356 | 85 ft | 5 kts | 169° |
| 2026-05-07 04:45 | 24.45441 | 54.64347 | 85 ft | 4 kts | 232° |
| 2026-05-07 04:45 | 24.45430 | 54.64307 | 83 ft | 7 kts | 257° |
| 2026-05-07 04:46 | 24.45428 | 54.64296 | 82 ft | 2 kts | 258° |
| 2026-05-07 04:46 | 24.45425 | 54.64280 | 81 ft | 0 kts | 258° |
| 2026-05-07 04:46 | 24.45423 | 54.64269 | 83 ft | 2 kts | 258° |
| 2026-05-07 04:47 | 24.45422 | 54.64267 | 83 ft | 0 kts | 258° |